Observation data for Caprock Canyons on 01/17/2021      Previous  Date  Next       Current Mesonet Observations  Soil Data  Daily Summary Page  Observations in Plain Language
KQU1 170600Z 28006KT 04/M07 A301 RMK A01 T00361065  RH  048%=      5-min Rain = 0
KQU1 170601Z 28006KT 04/M07 A301 RMK A01 T00351065  RH  048%=      5-min Rain = 0
KQU1 170602Z 28006KT 03/M06 A301 RMK A01 T00341063  RH  049%=      5-min Rain = 0
KQU1 170603Z 28006KT 03/M06 A301 RMK A01 T00341062  RH  050%=      5-min Rain = 0
KQU1 170604Z 28006KT 03/M06 A301 RMK A01 T00341061  RH  050%=      5-min Rain = 0
KQU1 170605Z 29006KT 03/M06 A301 RMK A01 T00341060  RH  050%=      5-min Rain = 0
KQU1 170606Z 28007KT 04/M06 A301 RMK A01 T00351059  RH  050%=      5-min Rain = 0
KQU1 170607Z 29007KT 04/M06 A301 RMK A01 T00361057  RH  051%=      5-min Rain = 0
KQU1 170608Z 29008KT 04/M06 A301 RMK A01 T00371055  RH  051%=      5-min Rain = 0
KQU1 170609Z 29008KT 04/M05 A301 RMK A01 T00391053  RH  051%=      5-min Rain = 0
KQU1 170610Z 28007KT 04/M05 A301 RMK A01 T00401052  RH  051%=      5-min Rain = 0
KQU1 170611Z 29007KT 04/M05 A301 RMK A01 T00401052  RH  051%=      5-min Rain = 0
KQU1 170612Z 29007KT 04/M05 A301 RMK A01 T00401051  RH  051%=      5-min Rain = 0
KQU1 170613Z 29007KT 04/M05 A301 RMK A01 T00401051  RH  051%=      5-min Rain = 0
KQU1 170614Z 29008KT 04/M05 A301 RMK A01 T00411050  RH  052%=      5-min Rain = 0
KQU1 170615Z 29007KT 04/M05 A301 RMK A01 T00411050  RH  052%=      5-min Rain = 0
KQU1 170616Z 29008KT 04/M05 A301 RMK A01 T00411049  RH  052%=      5-min Rain = 0
KQU1 170617Z 29007KT 04/M05 A301 RMK A01 T00421048  RH  052%=      5-min Rain = 0
KQU1 170618Z 29007KT 04/M05 A301 RMK A01 T00421047  RH  052%=      5-min Rain = 0
KQU1 170619Z 29007KT 04/M05 A301 RMK A01 T00421048  RH  052%=      5-min Rain = 0
KQU1 170620Z 29008KT 04/M05 A301 RMK A01 T00421046  RH  053%=      5-min Rain = 0
KQU1 170621Z 29006KT 04/M05 A301 RMK A01 T00421046  RH  053%=      5-min Rain = 0
KQU1 170622Z 29006KT 04/M05 A301 RMK A01 T00411046  RH  053%=      5-min Rain = 0
KQU1 170623Z 29007KT 04/M05 A301 RMK A01 T00401047  RH  053%=      5-min Rain = 0
KQU1 170624Z 29007KT 04/M05 A301 RMK A01 T00401045  RH  054%=      5-min Rain = 0
KQU1 170625Z 29007KT 04/M04 A301 RMK A01 T00411044  RH  054%=      5-min Rain = 0
KQU1 170626Z 29007KT 04/M04 A301 RMK A01 T00421043  RH  054%=      5-min Rain = 0
KQU1 170627Z 29007KT 04/M04 A301 RMK A01 T00431042  RH  054%=      5-min Rain = 0
KQU1 170628Z 29008KT 04/M04 A301 RMK A01 T00441041  RH  054%=      5-min Rain = 0
KQU1 170629Z 29008KT 05/M04 A301 RMK A01 T00461040  RH  054%=      5-min Rain = 0
KQU1 170630Z 29008KT 05/M04 A301 RMK A01 T00471040  RH  053%=      5-min Rain = 0
KQU1 170631Z 29007KT 05/M04 A301 RMK A01 T00471039  RH  053%=      5-min Rain = 0
KQU1 170632Z 29007KT 05/M04 A301 RMK A01 T00471039  RH  053%=      5-min Rain = 0
KQU1 170633Z 29007KT 05/M04 A301 RMK A01 T00471039  RH  054%=      5-min Rain = 0
KQU1 170634Z 29009KT 05/M04 A301 RMK A01 T00471038  RH  054%=      5-min Rain = 0
KQU1 170635Z 29009KT 05/M04 A301 RMK A01 T00481039  RH  053%=      5-min Rain = 0
KQU1 170636Z 29009KT 05/M04 A301 RMK A01 T00481040  RH  053%=      5-min Rain = 0
KQU1 170637Z 29009KT 05/M04 A301 RMK A01 T00481039  RH  053%=      5-min Rain = 0
KQU1 170638Z 29009KT 05/M04 A301 RMK A01 T00481039  RH  053%=      5-min Rain = 0
KQU1 170639Z 29009KT 05/M04 A301 RMK A01 T00491039  RH  053%=      5-min Rain = 0
KQU1 170640Z 29009KT 05/M04 A301 RMK A01 T00481039  RH  053%=      5-min Rain = 0
KQU1 170641Z 29008KT 05/M04 A301 RMK A01 T00481038  RH  054%=      5-min Rain = 0
KQU1 170642Z 29007KT 05/M04 A301 RMK A01 T00471039  RH  054%=      5-min Rain = 0
KQU1 170643Z 29007KT 05/M04 A301 RMK A01 T00461039  RH  054%=      5-min Rain = 0
KQU1 170644Z 29007KT 04/M04 A301 RMK A01 T00441040  RH  054%=      5-min Rain = 0
KQU1 170645Z 28006KT 04/M04 A301 RMK A01 T00431040  RH  055%=      5-min Rain = 0
KQU1 170646Z 28006KT 04/M04 A301 RMK A01 T00421040  RH  055%=      5-min Rain = 0
KQU1 170647Z 28006KT 04/M04 A301 RMK A01 T00411040  RH  056%=      5-min Rain = 0
KQU1 170648Z 29006KT 04/M04 A301 RMK A01 T00401040  RH  056%=      5-min Rain = 0
KQU1 170649Z 29006KT 04/M04 A301 RMK A01 T00391040  RH  056%=      5-min Rain = 0
KQU1 170650Z 29007KT 04/M04 A301 RMK A01 T00381039  RH  057%=      5-min Rain = 0
KQU1 170651Z 29007KT 04/M04 A301 RMK A01 T00381039  RH  057%=      5-min Rain = 0
KQU1 170652Z 29007KT 04/M04 A301 RMK A01 T00381038  RH  057%=      5-min Rain = 0
KQU1 170653Z 29007KT 04/M04 A301 RMK A01 T00381038  RH  058%=      5-min Rain = 0
KQU1 170654Z 29008KT 04/M04 A301 RMK A01 T00381037  RH  058%=      5-min Rain = 0
KQU1 170655Z 29008KT 04/M04 A301 RMK A01 T00391037  RH  058%=      5-min Rain = 0
KQU1 170656Z 29008KT 04/M04 A301 RMK A01 T00401037  RH  057%=      5-min Rain = 0
KQU1 170657Z 29009KT 04/M04 A301 RMK A01 T00411037  RH  057%=      5-min Rain = 0
KQU1 170658Z 30008KT 04/M04 A301 RMK A01 T00411037  RH  057%=      5-min Rain = 0
KQU1 170659Z 29008KT 04/M04 A301 RMK A01 T00411037  RH  057%=      5-min Rain = 0
KQU1 170700Z 30008KT 04/M04 A301 RMK A01 T00421037  RH  056%=      5-min Rain = 0
KQU1 170701Z 30009KT 04/M04 A301 RMK A01 T00421038  RH  056%=      5-min Rain = 0
KQU1 170702Z 29009KT 04/M04 A301 RMK A01 T00421038  RH  056%=      5-min Rain = 0
KQU1 170703Z 29008KT 04/M04 A301 RMK A01 T00411037  RH  057%=      5-min Rain = 0
KQU1 170704Z 30008KT 04/M04 A301 RMK A01 T00411037  RH  057%=      5-min Rain = 0
KQU1 170705Z 29009KT 04/M04 A301 RMK A01 T00411038  RH  057%=      5-min Rain = 0
KQU1 170706Z 29009KT 04/M04 A301 RMK A01 T00411038  RH  057%=      5-min Rain = 0
KQU1 170707Z 30009KT 04/M04 A301 RMK A01 T00411038  RH  057%=      5-min Rain = 0
KQU1 170708Z 29010KT 04/M04 A301 RMK A01 T00411038  RH  057%=      5-min Rain = 0
KQU1 170709Z 29009KT 04/M04 A301 RMK A01 T00411038  RH  057%=      5-min Rain = 0
KQU1 170710Z 30010KT 04/M04 A301 RMK A01 T00401037  RH  057%=      5-min Rain = 0
KQU1 170711Z 30010KT 04/M04 A301 RMK A01 T00411037  RH  057%=      5-min Rain = 0
KQU1 170712Z 30010KT 04/M04 A301 RMK A01 T00411037  RH  057%=      5-min Rain = 0
KQU1 170713Z 30010KT 04/M04 A301 RMK A01 T00411037  RH  057%=      5-min Rain = 0
KQU1 170714Z 30010KT 04/M04 A301 RMK A01 T00411037  RH  057%=      5-min Rain = 0
KQU1 170715Z 30010KT 04/M04 A301 RMK A01 T00411037  RH  057%=      5-min Rain = 0
KQU1 170716Z 30010KT 04/M04 A301 RMK A01 T00411037  RH  057%=      5-min Rain = 0
KQU1 170717Z 30009KT 04/M04 A301 RMK A01 T00411037  RH  057%=      5-min Rain = 0
KQU1 170718Z 30009KT 04/M04 A301 RMK A01 T00401037  RH  057%=      5-min Rain = 0
KQU1 170719Z 30010KT 04/M04 A301 RMK A01 T00401037  RH  057%=      5-min Rain = 0
KQU1 170720Z 30010KT 04/M04 A301 RMK A01 T00401037  RH  057%=      5-min Rain = 0
KQU1 170721Z 30010KT 04/M04 A301 RMK A01 T00401036  RH  057%=      5-min Rain = 0
KQU1 170722Z 29009KT 04/M04 A301 RMK A01 T00401036  RH  057%=      5-min Rain = 0
KQU1 170723Z 30010KT 04/M04 A301 RMK A01 T00401036  RH  058%=      5-min Rain = 0
KQU1 170724Z 30010KT 04/M04 A301 RMK A01 T00401036  RH  058%=      5-min Rain = 0
KQU1 170725Z 30010KT 04/M04 A301 RMK A01 T00401036  RH  058%=      5-min Rain = 0
KQU1 170726Z 30010KT 04/M04 A301 RMK A01 T00411036  RH  058%=      5-min Rain = 0
KQU1 170727Z 30010KT 04/M04 A301 RMK A01 T00401036  RH  058%=      5-min Rain = 0
KQU1 170728Z 30010KT 04/M04 A301 RMK A01 T00401035  RH  058%=      5-min Rain = 0
KQU1 170729Z 29010KT 04/M04 A301 RMK A01 T00401035  RH  058%=      5-min Rain = 0
KQU1 170730Z 29010KT 04/M04 A301 RMK A01 T00401035  RH  058%=      5-min Rain = 0
KQU1 170731Z 30009KT 04/M04 A301 RMK A01 T00411035  RH  058%=      5-min Rain = 0
KQU1 170732Z 30009KT 04/M04 A301 RMK A01 T00401035  RH  058%=      5-min Rain = 0
KQU1 170733Z 30010KT 04/M04 A301 RMK A01 T00401035  RH  058%=      5-min Rain = 0
KQU1 170734Z 30010KT 04/M04 A301 RMK A01 T00401036  RH  058%=      5-min Rain = 0
KQU1 170735Z 30011KT 04/M04 A301 RMK A01 T00411035  RH  058%=      5-min Rain = 0
KQU1 170736Z 30009KT 04/M04 A301 RMK A01 T00411035  RH  058%=      5-min Rain = 0
KQU1 170737Z 30010KT 04/M04 A301 RMK A01 T00411036  RH  057%=      5-min Rain = 0
KQU1 170738Z 30011KT 04/M04 A301 RMK A01 T00401036  RH  058%=      5-min Rain = 0
KQU1 170739Z 30011KT 04/M04 A301 RMK A01 T00391036  RH  058%=      5-min Rain = 0
KQU1 170740Z 30010KT 04/M04 A301 RMK A01 T00391036  RH  058%=      5-min Rain = 0
KQU1 170741Z 30010KT 04/M04 A301 RMK A01 T00391036  RH  058%=      5-min Rain = 0
KQU1 170742Z 30010KT 04/M04 A301 RMK A01 T00391036  RH  058%=      5-min Rain = 0
KQU1 170743Z 30009KT 04/M04 A3011 RMK A01 T00381036  RH  058%=      5-min Rain = 0
KQU1 170744Z 30010KT 04/M04 A3011 RMK A01 T00381036  RH  059%=      5-min Rain = 0
KQU1 170745Z 30010KT 04/M04 A3011 RMK A01 T00371036  RH  059%=      5-min Rain = 0
KQU1 170746Z 30010KT 04/M04 A3011 RMK A01 T00371037  RH  059%=      5-min Rain = 0
KQU1 170747Z 30010KT 04/M04 A3011 RMK A01 T00361036  RH  059%=      5-min Rain = 0
KQU1 170748Z 30009KT 04/M04 A3011 RMK A01 T00361036  RH  059%=      5-min Rain = 0
KQU1 170749Z 30009KT 04/M04 A3011 RMK A01 T00361036  RH  059%=      5-min Rain = 0
KQU1 170750Z 30010KT 04/M04 A3011 RMK A01 T00361036  RH  060%=      5-min Rain = 0
KQU1 170751Z 30009KT 04/M04 A3011 RMK A01 T00361036  RH  060%=      5-min Rain = 0
KQU1 170752Z 30009KT 04/M04 A3011 RMK A01 T00361036  RH  060%=      5-min Rain = 0
KQU1 170753Z 30009KT 04/M04 A3011 RMK A01 T00351035  RH  060%=      5-min Rain = 0
KQU1 170754Z 30009KT 04/M04 A3011 RMK A01 T00351035  RH  060%=      5-min Rain = 0
KQU1 170755Z 30009KT 03/M04 A3011 RMK A01 T00341036  RH  060%=      5-min Rain = 0
KQU1 170756Z 30009KT 03/M04 A3011 RMK A01 T00341036  RH  060%=      5-min Rain = 0
KQU1 170757Z 30009KT 03/M04 A3011 RMK A01 T00331036  RH  061%=      5-min Rain = 0
KQU1 170758Z 30009KT 03/M04 A3011 RMK A01 T00331035  RH  061%=      5-min Rain = 0
KQU1 170759Z 30009KT 03/M04 A3011 RMK A01 T00331036  RH  061%=      5-min Rain = 0
KQU1 170800Z 30009KT 03/M04 A3011 RMK A01 T00331035  RH  061%=      5-min Rain = 0
KQU1 170801Z 30008KT 03/M04 A3011 RMK A01 T00331035  RH  061%=      5-min Rain = 0
KQU1 170802Z 31009KT 03/M04 A3011 RMK A01 T00331035  RH  061%=      5-min Rain = 0
KQU1 170803Z 31008KT 03/M04 A3011 RMK A01 T00321035  RH  061%=      5-min Rain = 0
KQU1 170804Z 31008KT 03/M03 A3011 RMK A01 T00321034  RH  062%=      5-min Rain = 0
KQU1 170805Z 31007KT 03/M03 A3011 RMK A01 T00321034  RH  062%=      5-min Rain = 0
KQU1 170806Z 30008KT 03/M03 A3011 RMK A01 T00321033  RH  062%=      5-min Rain = 0
KQU1 170807Z 30008KT 03/M03 A3012 RMK A01 T00331033  RH  062%=      5-min Rain = 0
KQU1 170808Z 30008KT 03/M03 A3012 RMK A01 T00331033  RH  062%=      5-min Rain = 0
KQU1 170809Z 30008KT 03/M03 A3012 RMK A01 T00331033  RH  062%=      5-min Rain = 0
KQU1 170810Z 30009KT 03/M03 A3012 RMK A01 T00341032  RH  062%=      5-min Rain = 0
KQU1 170811Z 30008KT 03/M03 A3012 RMK A01 T00341032  RH  062%=      5-min Rain = 0
KQU1 170812Z 30008KT 04/M03 A3012 RMK A01 T00351033  RH  061%=      5-min Rain = 0
KQU1 170813Z 30008KT 04/M03 A3012 RMK A01 T00351033  RH  061%=      5-min Rain = 0
KQU1 170814Z 30008KT 03/M03 A3012 RMK A01 T00341033  RH  061%=      5-min Rain = 0
KQU1 170815Z 30008KT 03/M03 A3012 RMK A01 T00331033  RH  062%=      5-min Rain = 0
KQU1 170816Z 30007KT 03/M03 A3012 RMK A01 T00331033  RH  062%=      5-min Rain = 0
KQU1 170817Z 30007KT 03/M03 A3012 RMK A01 T00331033  RH  062%=      5-min Rain = 0
KQU1 170818Z 30008KT 03/M03 A3012 RMK A01 T00331033  RH  062%=      5-min Rain = 0
KQU1 170819Z 30007KT 03/M03 A3012 RMK A01 T00341033  RH  062%=      5-min Rain = 0
KQU1 170820Z 30008KT 03/M03 A3012 RMK A01 T00341033  RH  062%=      5-min Rain = 0
KQU1 170821Z 30007KT 03/M03 A3012 RMK A01 T00341033  RH  062%=      5-min Rain = 0
KQU1 170822Z 30007KT 03/M03 A3012 RMK A01 T00341033  RH  061%=      5-min Rain = 0
KQU1 170823Z 30007KT 03/M03 A3012 RMK A01 T00341033  RH  061%=      5-min Rain = 0
KQU1 170824Z 30007KT 03/M03 A3012 RMK A01 T00341033  RH  062%=      5-min Rain = 0
KQU1 170825Z 30007KT 03/M03 A3012 RMK A01 T00341033  RH  062%=      5-min Rain = 0
KQU1 170826Z 30007KT 03/M03 A3012 RMK A01 T00331033  RH  062%=      5-min Rain = 0
KQU1 170827Z 30007KT 03/M03 A3012 RMK A01 T00331032  RH  062%=      5-min Rain = 0
KQU1 170828Z 31007KT 03/M03 A3012 RMK A01 T00331033  RH  062%=      5-min Rain = 0
KQU1 170829Z 31007KT 03/M03 A3012 RMK A01 T00331033  RH  062%=      5-min Rain = 0
KQU1 170830Z 31008KT 03/M03 A3012 RMK A01 T00331032  RH  062%=      5-min Rain = 0
KQU1 170831Z 31008KT 03/M03 A3012 RMK A01 T00331033  RH  062%=      5-min Rain = 0
KQU1 170832Z 31008KT 03/M03 A3012 RMK A01 T00321034  RH  062%=      5-min Rain = 0
KQU1 170833Z 31008KT 03/M04 A3012 RMK A01 T00311035  RH  062%=      5-min Rain = 0
KQU1 170834Z 31009KT 03/M03 A3012 RMK A01 T00301034  RH  063%=      5-min Rain = 0
KQU1 170835Z 31008KT 03/M03 A3012 RMK A01 T00301034  RH  063%=      5-min Rain = 0
KQU1 170836Z 31007KT 03/M04 A3012 RMK A01 T00301035  RH  062%=      5-min Rain = 0
KQU1 170837Z 31008KT 03/M04 A3012 RMK A01 T00291035  RH  063%=      5-min Rain = 0
KQU1 170838Z 31009KT 03/M04 A3012 RMK A01 T00301035  RH  063%=      5-min Rain = 0
KQU1 170839Z 31009KT 03/M04 A3012 RMK A01 T00291035  RH  063%=      5-min Rain = 0
KQU1 170840Z 31009KT 03/M04 A3012 RMK A01 T00281036  RH  063%=      5-min Rain = 0
KQU1 170841Z 31009KT 03/M04 A3012 RMK A01 T00271035  RH  063%=      5-min Rain = 0
KQU1 170842Z 31009KT 03/M04 A3012 RMK A01 T00261035  RH  064%=      5-min Rain = 0
KQU1 170843Z 31009KT 03/M04 A3012 RMK A01 T00261036  RH  064%=      5-min Rain = 0
KQU1 170844Z 31008KT 03/M04 A3012 RMK A01 T00261036  RH  064%=      5-min Rain = 0
KQU1 170845Z 31009KT 03/M04 A3012 RMK A01 T00251036  RH  064%=      5-min Rain = 0
KQU1 170846Z 31009KT 03/M04 A3013 RMK A01 T00251036  RH  064%=      5-min Rain = 0
KQU1 170847Z 31009KT 03/M04 A3013 RMK A01 T00251036  RH  064%=      5-min Rain = 0
KQU1 170848Z 31009KT 03/M04 A3013 RMK A01 T00251037  RH  064%=      5-min Rain = 0
KQU1 170849Z 31008KT 03/M04 A3013 RMK A01 T00251037  RH  064%=      5-min Rain = 0
KQU1 170850Z 31008KT 03/M04 A3013 RMK A01 T00251037  RH  064%=      5-min Rain = 0
KQU1 170851Z 32009KT 03/M04 A3013 RMK A01 T00251037  RH  064%=      5-min Rain = 0
KQU1 170852Z 31008KT 03/M04 A3013 RMK A01 T00261037  RH  063%=      5-min Rain = 0
KQU1 170853Z 32008KT 03/M04 A3013 RMK A01 T00271038  RH  062%=      5-min Rain = 0
KQU1 170854Z 32008KT 03/M04 A3013 RMK A01 T00271038  RH  062%=      5-min Rain = 0
KQU1 170855Z 32008KT 03/M04 A3013 RMK A01 T00281038  RH  062%=      5-min Rain = 0
KQU1 170856Z 32008KT 03/M04 A3013 RMK A01 T00281039  RH  061%=      5-min Rain = 0
KQU1 170857Z 32008KT 03/M04 A3013 RMK A01 T00281039  RH  061%=      5-min Rain = 0
KQU1 170858Z 32008KT 03/M04 A3013 RMK A01 T00271039  RH  062%=      5-min Rain = 0
KQU1 170859Z 32008KT 03/M04 A3013 RMK A01 T00261039  RH  062%=      5-min Rain = 0
KQU1 170900Z 33007KT 03/M04 A3013 RMK A01 T00251039  RH  062%=      5-min Rain = 0
KQU1 170901Z 32008KT 02/M04 A3013 RMK A01 T00241040  RH  063%=      5-min Rain = 0
KQU1 170902Z 32007KT 02/M04 A3013 RMK A01 T00241040  RH  063%=      5-min Rain = 0
KQU1 170903Z 32007KT 02/M04 A3013 RMK A01 T00241040  RH  063%=      5-min Rain = 0
KQU1 170904Z 33006KT 02/M04 A3013 RMK A01 T00241041  RH  062%=      5-min Rain = 0
KQU1 170905Z 33006KT 02/M04 A3013 RMK A01 T00241041  RH  062%=      5-min Rain = 0
KQU1 170906Z 32005KT 02/M04 A3013 RMK A01 T00231042  RH  062%=      5-min Rain = 0
KQU1 170907Z 32006KT 02/M04 A3013 RMK A01 T00231042  RH  062%=      5-min Rain = 0
KQU1 170908Z 32006KT 02/M04 A3013 RMK A01 T00231042  RH  062%=      5-min Rain = 0
KQU1 170909Z 32006KT 02/M04 A3013 RMK A01 T00231043  RH  062%=      5-min Rain = 0
KQU1 170910Z 33005KT 02/M04 A3013 RMK A01 T00231043  RH  061%=      5-min Rain = 0
KQU1 170911Z 33005KT 02/M04 A3013 RMK A01 T00241043  RH  061%=      5-min Rain = 0
KQU1 170912Z 35005KT 03/M04 A3013 RMK A01 T00261044  RH  060%=      5-min Rain = 0
KQU1 170913Z 34004KT 03/M05 A3013 RMK A01 T00291045  RH  058%=      5-min Rain = 0
KQU1 170914Z 34005KT 03/M05 A3013 RMK A01 T00311046  RH  057%=      5-min Rain = 0
KQU1 170915Z 34007KT 03/M05 A3013 RMK A01 T00321047  RH  056%=      5-min Rain = 0
KQU1 170916Z 34007KT 04/M05 A3013 RMK A01 T00371049  RH  053%=      5-min Rain = 0
KQU1 170917Z 35009KT 04/M05 A3013 RMK A01 T00421052  RH  051%=      5-min Rain = 0
KQU1 170918Z 35007KT 05/M05 A3013 RMK A01 T00461054  RH  048%=      5-min Rain = 0
KQU1 170919Z 35008KT 05/M06 A3013 RMK A01 T00491055  RH  047%=      5-min Rain = 0
KQU1 170920Z 36009KT 05/M06 A3013 RMK A01 T00511056  RH  046%=      5-min Rain = 0
KQU1 170921Z 35007KT 05/M06 A3013 RMK A01 T00541055  RH  045%=      5-min Rain = 0
KQU1 170922Z 36008KT 06/M06 A3013 RMK A01 T00551056  RH  045%=      5-min Rain = 0
KQU1 170923Z 36009KT 06/M06 A3013 RMK A01 T00571056  RH  044%=      5-min Rain = 0
KQU1 170924Z 35007KT 06/M06 A3013 RMK A01 T00581057  RH  043%=      5-min Rain = 0
KQU1 170925Z 36009KT 06/M06 A3013 RMK A01 T00581058  RH  043%=      5-min Rain = 0
KQU1 170926Z 00008KT 06/M06 A3013 RMK A01 T00591058  RH  043%=      5-min Rain = 0
KQU1 170927Z 35006KT 06/M06 A3013 RMK A01 T00601058  RH  043%=      5-min Rain = 0
KQU1 170928Z 36006KT 06/M06 A3013 RMK A01 T00601057  RH  043%=      5-min Rain = 0
KQU1 170929Z 01007KT 06/M06 A3013 RMK A01 T00591056  RH  043%=      5-min Rain = 0
KQU1 170930Z 00006KT 06/M06 A3013 RMK A01 T00591055  RH  044%=      5-min Rain = 0
KQU1 170931Z 36007KT 06/M06 A3013 RMK A01 T00581056  RH  044%=      5-min Rain = 0
KQU1 170932Z 01006KT 06/M06 A3012 RMK A01 T00571056  RH  044%=      5-min Rain = 0
KQU1 170933Z 01005KT 06/M06 A3012 RMK A01 T00571056  RH  044%=      5-min Rain = 0
KQU1 170934Z 01005KT 06/M06 A3012 RMK A01 T00561056  RH  044%=      5-min Rain = 0
KQU1 170935Z 00006KT 06/M06 A3012 RMK A01 T00561056  RH  044%=      5-min Rain = 0
KQU1 170936Z 02005KT 06/M06 A3012 RMK A01 T00561055  RH  045%=      5-min Rain = 0
KQU1 170937Z 01005KT 06/M05 A3012 RMK A01 T00551054  RH  045%=      5-min Rain = 0
KQU1 170938Z 01005KT 05/M05 A3012 RMK A01 T00541053  RH  046%=      5-min Rain = 0
KQU1 170939Z 00006KT 05/M05 A3012 RMK A01 T00531053  RH  046%=      5-min Rain = 0
KQU1 170940Z 00006KT 05/M05 A3012 RMK A01 T00521053  RH  047%=      5-min Rain = 0
KQU1 170941Z 01006KT 05/M05 A3012 RMK A01 T00511053  RH  047%=      5-min Rain = 0
KQU1 170942Z 01006KT 05/M05 A3012 RMK A01 T00501053  RH  047%=      5-min Rain = 0
KQU1 170943Z 00007KT 05/M05 A3012 RMK A01 T00491053  RH  048%=      5-min Rain = 0
KQU1 170944Z 36006KT 05/M05 A3012 RMK A01 T00481052  RH  048%=      5-min Rain = 0
KQU1 170945Z 36007KT 05/M05 A3012 RMK A01 T00471052  RH  049%=      5-min Rain = 0
KQU1 170946Z 36007KT 05/M05 A3012 RMK A01 T00461052  RH  049%=      5-min Rain = 0
KQU1 170947Z 00007KT 05/M05 A3012 RMK A01 T00461053  RH  049%=      5-min Rain = 0
KQU1 170948Z 36008KT 05/M05 A3013 RMK A01 T00461053  RH  049%=      5-min Rain = 0
KQU1 170949Z 36008KT 05/M05 A3013 RMK A01 T00461052  RH  049%=      5-min Rain = 0
KQU1 170950Z 36007KT 05/M05 A3013 RMK A01 T00451053  RH  049%=      5-min Rain = 0
KQU1 170951Z 00007KT 05/M05 A3013 RMK A01 T00451053  RH  049%=      5-min Rain = 0
KQU1 170952Z 00007KT 05/M05 A3013 RMK A01 T00451053  RH  049%=      5-min Rain = 0
KQU1 170953Z 36007KT 05/M05 A3013 RMK A01 T00451053  RH  049%=      5-min Rain = 0
KQU1 170954Z 36007KT 05/M05 A3012 RMK A01 T00451053  RH  049%=      5-min Rain = 0
KQU1 170955Z 36007KT 05/M05 A3012 RMK A01 T00451053  RH  049%=      5-min Rain = 0
KQU1 170956Z 36007KT 04/M05 A3012 RMK A01 T00441054  RH  049%=      5-min Rain = 0
KQU1 170957Z 00007KT 04/M05 A3012 RMK A01 T00441054  RH  049%=      5-min Rain = 0
KQU1 170958Z 35005KT 04/M05 A3013 RMK A01 T00441053  RH  049%=      5-min Rain = 0
KQU1 170959Z 00007KT 04/M05 A3013 RMK A01 T00441053  RH  049%=      5-min Rain = 0
KQU1 171000Z 35006KT 05/M05 A3013 RMK A01 T00451054  RH  049%=      5-min Rain = 0
KQU1 171001Z 00006KT 05/M06 A3013 RMK A01 T00451055  RH  048%=      5-min Rain = 0
KQU1 171002Z 36006KT 05/M06 A3013 RMK A01 T00461055  RH  048%=      5-min Rain = 0
KQU1 171003Z 36006KT 05/M06 A3013 RMK A01 T00461055  RH  048%=      5-min Rain = 0
KQU1 171004Z 36007KT 05/M06 A3013 RMK A01 T00471056  RH  047%=      5-min Rain = 0
KQU1 171005Z 00006KT 05/M06 A3013 RMK A01 T00471056  RH  047%=      5-min Rain = 0
KQU1 171006Z 00006KT 05/M06 A3013 RMK A01 T00471056  RH  047%=      5-min Rain = 0
KQU1 171007Z 00004KT 05/M06 A3013 RMK A01 T00481056  RH  047%=      5-min Rain = 0
KQU1 171008Z 01005KT 05/M06 A3013 RMK A01 T00471056  RH  047%=      5-min Rain = 0
KQU1 171009Z 01005KT 05/M06 A3013 RMK A01 T00471056  RH  047%=      5-min Rain = 0
KQU1 171010Z 36006KT 05/M06 A3013 RMK A01 T00471056  RH  047%=      5-min Rain = 0
KQU1 171011Z 00007KT 05/M06 A3013 RMK A01 T00471055  RH  047%=      5-min Rain = 0
KQU1 171012Z 00006KT 05/M06 A3013 RMK A01 T00471055  RH  047%=      5-min Rain = 0
KQU1 171013Z 00006KT 05/M06 A3013 RMK A01 T00471055  RH  047%=      5-min Rain = 0
KQU1 171014Z 36006KT 05/M06 A3012 RMK A01 T00481055  RH  047%=      5-min Rain = 0
KQU1 171015Z 01006KT 05/M06 A3012 RMK A01 T00481055  RH  047%=      5-min Rain = 0
KQU1 171016Z 00004KT 05/M06 A3012 RMK A01 T00481055  RH  047%=      5-min Rain = 0
KQU1 171017Z 00006KT 05/M06 A3012 RMK A01 T00471055  RH  048%=      5-min Rain = 0
KQU1 171018Z 36006KT 05/M06 A3012 RMK A01 T00461055  RH  048%=      5-min Rain = 0
KQU1 171019Z 36006KT 05/M06 A3012 RMK A01 T00471055  RH  048%=      5-min Rain = 0
KQU1 171020Z 36006KT 05/M06 A3012 RMK A01 T00471055  RH  048%=      5-min Rain = 0
KQU1 171021Z 36005KT 05/M05 A3012 RMK A01 T00471054  RH  048%=      5-min Rain = 0
KQU1 171022Z 35005KT 05/M05 A3012 RMK A01 T00471054  RH  048%=      5-min Rain = 0
KQU1 171023Z 00005KT 05/M05 A3012 RMK A01 T00461054  RH  048%=      5-min Rain = 0
KQU1 171024Z 00005KT 05/M05 A3012 RMK A01 T00461054  RH  048%=      5-min Rain = 0
KQU1 171025Z 35005KT 05/M05 A3012 RMK A01 T00451054  RH  048%=      5-min Rain = 0
KQU1 171026Z 36005KT 05/M05 A3012 RMK A01 T00451054  RH  049%=      5-min Rain = 0
KQU1 171027Z 35004KT 05/M05 A3012 RMK A01 T00451053  RH  049%=      5-min Rain = 0
KQU1 171028Z 35004KT 05/M05 A3012 RMK A01 T00451054  RH  049%=      5-min Rain = 0
KQU1 171029Z 35006KT 05/M05 A3012 RMK A01 T00451054  RH  049%=      5-min Rain = 0
KQU1 171030Z 35005KT 05/M06 A3012 RMK A01 T00451056  RH  048%=      5-min Rain = 0
KQU1 171031Z 36004KT 05/M06 A3012 RMK A01 T00461057  RH  047%=      5-min Rain = 0
KQU1 171032Z 00004KT 05/M06 A3012 RMK A01 T00461056  RH  048%=      5-min Rain = 0
KQU1 171033Z 35005KT 05/M06 A3012 RMK A01 T00461056  RH  047%=      5-min Rain = 0
KQU1 171034Z 35004KT 05/M06 A3012 RMK A01 T00461056  RH  047%=      5-min Rain = 0
KQU1 171035Z 36005KT 05/M06 A3012 RMK A01 T00461056  RH  048%=      5-min Rain = 0
KQU1 171036Z 00004KT 05/M06 A3012 RMK A01 T00461057  RH  047%=      5-min Rain = 0
KQU1 171037Z 36005KT 05/M06 A3012 RMK A01 T00461058  RH  047%=      5-min Rain = 0
KQU1 171038Z 35003KT 05/M06 A3012 RMK A01 T00471058  RH  047%=      5-min Rain = 0
KQU1 171039Z 00004KT 05/M06 A3012 RMK A01 T00471058  RH  047%=      5-min Rain = 0
KQU1 171040Z 35004KT 05/M06 A3012 RMK A01 T00461058  RH  047%=      5-min Rain = 0
KQU1 171041Z 35003KT 05/M06 A3012 RMK A01 T00471058  RH  047%=      5-min Rain = 0
KQU1 171042Z 35004KT 05/M06 A3012 RMK A01 T00471059  RH  046%=      5-min Rain = 0
KQU1 171043Z 35004KT 05/M06 A3012 RMK A01 T00471059  RH  046%=      5-min Rain = 0
KQU1 171044Z 00003KT 05/M06 A3012 RMK A01 T00471059  RH  046%=      5-min Rain = 0
KQU1 171045Z 00002KT 05/M06 A3012 RMK A01 T00471058  RH  046%=      5-min Rain = 0
KQU1 171046Z 36002KT 05/M06 A3012 RMK A01 T00471058  RH  047%=      5-min Rain = 0
KQU1 171047Z 35003KT 05/M06 A3012 RMK A01 T00471059  RH  046%=      5-min Rain = 0
KQU1 171048Z 35005KT 05/M06 A3012 RMK A01 T00471061  RH  046%=      5-min Rain = 0
KQU1 171049Z 35003KT 05/M06 A3012 RMK A01 T00481062  RH  045%=      5-min Rain = 0
KQU1 171050Z 35003KT 05/M06 A3012 RMK A01 T00481061  RH  045%=      5-min Rain = 0
KQU1 171051Z 35002KT 05/M06 A3012 RMK A01 T00481061  RH  045%=      5-min Rain = 0
KQU1 171052Z 33004KT 05/M06 A3012 RMK A01 T00481063  RH  044%=      5-min Rain = 0
KQU1 171053Z 34005KT 05/M07 A3012 RMK A01 T00501066  RH  043%=      5-min Rain = 0
KQU1 171054Z 36003KT 05/M07 A3012 RMK A01 T00501065  RH  043%=      5-min Rain = 0
KQU1 171055Z 36003KT 05/M06 A3012 RMK A01 T00501064  RH  044%=      5-min Rain = 0
KQU1 171056Z 34003KT 05/M07 A3012 RMK A01 T00491065  RH  043%=      5-min Rain = 0
KQU1 171057Z 34003KT 05/M07 A3012 RMK A01 T00491065  RH  043%=      5-min Rain = 0
KQU1 171058Z 33003KT 05/M07 A3012 RMK A01 T00491066  RH  043%=      5-min Rain = 0
KQU1 171059Z 34003KT 05/M07 A3012 RMK A01 T00491067  RH  043%=      5-min Rain = 0
KQU1 171100Z 34004KT 05/M07 A3012 RMK A01 T00491067  RH  043%=      5-min Rain = 0
KQU1 171101Z 34003KT 05/M07 A3012 RMK A01 T00491068  RH  043%=      5-min Rain = 0
KQU1 171102Z 34003KT 05/M07 A3012 RMK A01 T00491068  RH  043%=      5-min Rain = 0
KQU1 171103Z 33003KT 05/M07 A3012 RMK A01 T00461068  RH  043%=      5-min Rain = 0
KQU1 171104Z 32003KT 04/M07 A3012 RMK A01 T00441068  RH  044%=      5-min Rain = 0
KQU1 171105Z 34003KT 04/M07 A3012 RMK A01 T00411068  RH  045%=      5-min Rain = 0
KQU1 171106Z 35002KT 04/M07 A3012 RMK A01 T00371067  RH  047%=      5-min Rain = 0
KQU1 171107Z 35002KT 04/M07 A3012 RMK A01 T00351066  RH  048%=      5-min Rain = 0
KQU1 171108Z 32003KT 04/M07 A3012 RMK A01 T00351066  RH  048%=      5-min Rain = 0
KQU1 171109Z 33003KT 04/M07 A3012 RMK A01 T00361066  RH  047%=      5-min Rain = 0
KQU1 171110Z 35003KT 04/M07 A3012 RMK A01 T00361066  RH  047%=      5-min Rain = 0
KQU1 171111Z 34003KT 04/M07 A3012 RMK A01 T00371067  RH  047%=      5-min Rain = 0
KQU1 171112Z 34003KT 04/M07 A3012 RMK A01 T00361066  RH  047%=      5-min Rain = 0
KQU1 171113Z 36003KT 04/M07 A3012 RMK A01 T00361066  RH  047%=      5-min Rain = 0
KQU1 171114Z 35004KT 04/M07 A3012 RMK A01 T00351067  RH  047%=      5-min Rain = 0
KQU1 171115Z 35005KT 04/M07 A3012 RMK A01 T00361066  RH  047%=      5-min Rain = 0
KQU1 171116Z 34004KT 04/M07 A3012 RMK A01 T00371066  RH  047%=      5-min Rain = 0
KQU1 171117Z 34003KT 04/M07 A3012 RMK A01 T00351066  RH  047%=      5-min Rain = 0
KQU1 171118Z 35004KT 03/M07 A3012 RMK A01 T00321066  RH  049%=      5-min Rain = 0
KQU1 171119Z 34004KT 03/M07 A3012 RMK A01 T00291065  RH  050%=      5-min Rain = 0
KQU1 171120Z 35004KT 03/M06 A3012 RMK A01 T00291064  RH  050%=      5-min Rain = 0
KQU1 171121Z 34005KT 03/M07 A3012 RMK A01 T00301065  RH  050%=      5-min Rain = 0
KQU1 171122Z 34004KT 03/M07 A3013 RMK A01 T00301065  RH  050%=      5-min Rain = 0
KQU1 171123Z 35005KT 03/M07 A3013 RMK A01 T00321065  RH  049%=      5-min Rain = 0
KQU1 171124Z 35005KT 03/M07 A3013 RMK A01 T00341065  RH  048%=      5-min Rain = 0
KQU1 171125Z 34005KT 04/M07 A3013 RMK A01 T00361066  RH  047%=      5-min Rain = 0
KQU1 171126Z 34005KT 04/M07 A3013 RMK A01 T00361065  RH  048%=      5-min Rain = 0
KQU1 171127Z 34005KT 04/M07 A3013 RMK A01 T00361065  RH  047%=      5-min Rain = 0
KQU1 171128Z 34005KT 04/M07 A3013 RMK A01 T00381066  RH  047%=      5-min Rain = 0
KQU1 171129Z 34005KT 04/M07 A3013 RMK A01 T00391066  RH  046%=      5-min Rain = 0
KQU1 171130Z 35004KT 04/M07 A3013 RMK A01 T00401067  RH  046%=      5-min Rain = 0
KQU1 171131Z 34004KT 04/M07 A3013 RMK A01 T00391066  RH  046%=      5-min Rain = 0
KQU1 171132Z 33004KT 04/M07 A3013 RMK A01 T00371065  RH  047%=      5-min Rain = 0
KQU1 171133Z 33004KT 03/M06 A3013 RMK A01 T00331064  RH  049%=      5-min Rain = 0
KQU1 171134Z 33004KT 03/M06 A3013 RMK A01 T00311064  RH  050%=      5-min Rain = 0
KQU1 171135Z 33004KT 03/M06 A3013 RMK A01 T00291064  RH  050%=      5-min Rain = 0
KQU1 171136Z 33004KT 03/M06 A3013 RMK A01 T00291064  RH  050%=      5-min Rain = 0
KQU1 171137Z 32004KT 03/M06 A3013 RMK A01 T00281064  RH  051%=      5-min Rain = 0
KQU1 171138Z 33004KT 03/M06 A3013 RMK A01 T00261063  RH  052%=      5-min Rain = 0
KQU1 171139Z 33004KT 03/M06 A3013 RMK A01 T00271063  RH  051%=      5-min Rain = 0
KQU1 171140Z 32004KT 03/M06 A3013 RMK A01 T00281064  RH  051%=      5-min Rain = 0
KQU1 171141Z 31004KT 03/M06 A3013 RMK A01 T00281063  RH  051%=      5-min Rain = 0
KQU1 171142Z 32004KT 03/M06 A3013 RMK A01 T00251063  RH  052%=      5-min Rain = 0
KQU1 171143Z 31004KT 02/M06 A3013 RMK A01 T00231062  RH  053%=      5-min Rain = 0
KQU1 171144Z 30004KT 02/M06 A3013 RMK A01 T00221062  RH  054%=      5-min Rain = 0
KQU1 171145Z 31004KT 02/M06 A3013 RMK A01 T00201062  RH  055%=      5-min Rain = 0
KQU1 171146Z 31004KT 02/M06 A3013 RMK A01 T00201063  RH  054%=      5-min Rain = 0
KQU1 171147Z 31005KT 02/M06 A3013 RMK A01 T00211063  RH  054%=      5-min Rain = 0
KQU1 171148Z 32005KT 02/M06 A3013 RMK A01 T00221063  RH  053%=      5-min Rain = 0
KQU1 171149Z 31004KT 02/M06 A3013 RMK A01 T00241064  RH  052%=      5-min Rain = 0
KQU1 171150Z 31004KT 02/M06 A3013 RMK A01 T00231063  RH  053%=      5-min Rain = 0
KQU1 171151Z 31004KT 02/M06 A3013 RMK A01 T00211063  RH  054%=      5-min Rain = 0
KQU1 171152Z 30004KT 02/M06 A3013 RMK A01 T00191063  RH  055%=      5-min Rain = 0
KQU1 171153Z 30005KT 02/M06 A3013 RMK A01 T00161063  RH  056%=      5-min Rain = 0
KQU1 171154Z 30004KT 01/M06 A3013 RMK A01 T00131062  RH  057%=      5-min Rain = 0
KQU1 171155Z 30004KT 01/M06 A3013 RMK A01 T00121062  RH  058%=      5-min Rain = 0
KQU1 171156Z 30005KT 01/M06 A3013 RMK A01 T00111062  RH  058%=      5-min Rain = 0
KQU1 171157Z 30005KT 01/M06 A3013 RMK A01 T00111062  RH  058%=      5-min Rain = 0
KQU1 171158Z 30005KT 01/M06 A3013 RMK A01 T00101062  RH  059%=      5-min Rain = 0
KQU1 171159Z 30005KT 01/M06 A3013 RMK A01 T00091062  RH  059%=      5-min Rain = 0
KQU1 171200Z 30005KT 01/M06 A3014 RMK A01 T00081062  RH  060%=      5-min Rain = 0
KQU1 171201Z 30005KT 01/M06 A3014 RMK A01 T00071062  RH  060%=      5-min Rain = 0
KQU1 171202Z 31004KT 01/M06 A3014 RMK A01 T00071062  RH  060%=      5-min Rain = 0
KQU1 171203Z 30005KT 01/M06 A3014 RMK A01 T00071062  RH  060%=      5-min Rain = 0
KQU1 171204Z 30005KT 01/M06 A3014 RMK A01 T00061062  RH  060%=      5-min Rain = 0
KQU1 171205Z 30005KT 01/M06 A3014 RMK A01 T00051061  RH  061%=      5-min Rain = 0
KQU1 171206Z 31005KT 00/M06 A3014 RMK A01 T00041061  RH  061%=      5-min Rain = 0
KQU1 171207Z 30005KT 00/M06 A3014 RMK A01 T00041061  RH  062%=      5-min Rain = 0
KQU1 171208Z 30005KT 00/M06 A3014 RMK A01 T00031062  RH  062%=      5-min Rain = 0
KQU1 171209Z 30005KT 00/M06 A3014 RMK A01 T00021062  RH  062%=      5-min Rain = 0
KQU1 171210Z 30005KT 00/M06 A3014 RMK A01 T00021062  RH  062%=      5-min Rain = 0
KQU1 171211Z 30005KT 00/M06 A3014 RMK A01 T00011062  RH  063%=      5-min Rain = 0
KQU1 171212Z 30005KT 00/M06 A3014 RMK A01 T00011062  RH  063%=      5-min Rain = 0
KQU1 171213Z 30005KT 00/06 A3014 RMK A01 T00-00-62  RH  063%=      5-min Rain = 0
KQU1 171214Z 29005KT M00/M06 A3015 RMK A01 T10011063  RH  063%=      5-min Rain = 0
KQU1 171215Z 29004KT M00/M06 A3015 RMK A01 T10031063  RH  064%=      5-min Rain = 0
KQU1 171216Z 29004KT M01/M06 A3015 RMK A01 T10051062  RH  065%=      5-min Rain = 0
KQU1 171217Z 29004KT M01/M06 A3015 RMK A01 T10061062  RH  066%=      5-min Rain = 0
KQU1 171218Z 29005KT M01/M06 A3015 RMK A01 T10081062  RH  067%=      5-min Rain = 0
KQU1 171219Z 29004KT M01/M06 A3015 RMK A01 T10091062  RH  067%=      5-min Rain = 0
KQU1 171220Z 29004KT M01/M06 A3015 RMK A01 T10101062  RH  068%=      5-min Rain = 0
KQU1 171221Z 29005KT M01/M06 A3015 RMK A01 T10111062  RH  068%=      5-min Rain = 0
KQU1 171222Z 29005KT M01/M06 A3015 RMK A01 T10111062  RH  068%=      5-min Rain = 0
KQU1 171223Z 30004KT M01/M06 A3015 RMK A01 T10101062  RH  068%=      5-min Rain = 0
KQU1 171224Z 30004KT M01/M06 A3015 RMK A01 T10101062  RH  068%=      5-min Rain = 0
KQU1 171225Z 30004KT M01/M06 A3015 RMK A01 T10111062  RH  069%=      5-min Rain = 0
KQU1 171226Z 30005KT M01/M06 A3015 RMK A01 T10121061  RH  069%=      5-min Rain = 0
KQU1 171227Z 30004KT M01/M06 A3015 RMK A01 T10121061  RH  069%=      5-min Rain = 0
KQU1 171228Z 30004KT M01/M06 A3015 RMK A01 T10121062  RH  069%=      5-min Rain = 0
KQU1 171229Z 30004KT M01/M06 A3015 RMK A01 T10141061  RH  070%=      5-min Rain = 0
KQU1 171230Z 30004KT M01/M06 A3015 RMK A01 T10141061  RH  070%=      5-min Rain = 0
KQU1 171231Z 30005KT M02/M06 A3015 RMK A01 T10151061  RH  071%=      5-min Rain = 0
KQU1 171232Z 30005KT M01/M06 A3015 RMK A01 T10141061  RH  071%=      5-min Rain = 0
KQU1 171233Z 30006KT M02/M06 A3015 RMK A01 T10151061  RH  071%=      5-min Rain = 0
KQU1 171234Z 30006KT M02/M06 A3015 RMK A01 T10151061  RH  071%=      5-min Rain = 0
KQU1 171235Z 30007KT M02/M06 A3015 RMK A01 T10151061  RH  071%=      5-min Rain = 0
KQU1 171236Z 31007KT M02/M06 A3015 RMK A01 T10151061  RH  071%=      5-min Rain = 0
KQU1 171237Z 31007KT M02/M06 A3015 RMK A01 T10151061  RH  071%=      5-min Rain = 0
KQU1 171238Z 31007KT M02/M06 A3015 RMK A01 T10151061  RH  071%=      5-min Rain = 0
KQU1 171239Z 31008KT M02/M06 A3015 RMK A01 T10161060  RH  071%=      5-min Rain = 0
KQU1 171240Z 32007KT M02/M06 A3015 RMK A01 T10151061  RH  071%=      5-min Rain = 0
KQU1 171241Z 31008KT M02/M06 A3015 RMK A01 T10151062  RH  070%=      5-min Rain = 0
KQU1 171242Z 32008KT M02/M06 A3015 RMK A01 T10151063  RH  070%=      5-min Rain = 0
KQU1 171243Z 32008KT M01/M06 A3015 RMK A01 T10141062  RH  070%=      5-min Rain = 0
KQU1 171244Z 32007KT M01/M06 A3015 RMK A01 T10121062  RH  069%=      5-min Rain = 0
KQU1 171245Z 31007KT M01/M06 A3016 RMK A01 T10121062  RH  069%=      5-min Rain = 0
KQU1 171246Z 31007KT M01/M06 A3016 RMK A01 T10121062  RH  069%=      5-min Rain = 0
KQU1 171247Z 32007KT M01/M06 A3016 RMK A01 T10121062  RH  069%=      5-min Rain = 0
KQU1 171248Z 31008KT M01/M06 A3016 RMK A01 T10121062  RH  069%=      5-min Rain = 0
KQU1 171249Z 32008KT M01/M06 A3016 RMK A01 T10111062  RH  068%=      5-min Rain = 0
KQU1 171250Z 31008KT M01/M06 A3016 RMK A01 T10091062  RH  067%=      5-min Rain = 0
KQU1 171251Z 31008KT M01/M06 A3016 RMK A01 T10081062  RH  067%=      5-min Rain = 0
KQU1 171252Z 31007KT M01/M06 A3016 RMK A01 T10061062  RH  066%=      5-min Rain = 0
KQU1 171253Z 31006KT M01/M06 A3016 RMK A01 T10061062  RH  066%=      5-min Rain = 0
KQU1 171254Z 31007KT M01/M06 A3016 RMK A01 T10051062  RH  065%=      5-min Rain = 0
KQU1 171255Z 31006KT M00/M06 A3016 RMK A01 T10041062  RH  065%=      5-min Rain = 0
KQU1 171256Z 31006KT M00/M06 A3016 RMK A01 T10041062  RH  065%=      5-min Rain = 0
KQU1 171257Z 31006KT M00/M06 A3016 RMK A01 T10031062  RH  064%=      5-min Rain = 0
KQU1 171258Z 31006KT M00/M06 A3016 RMK A01 T10021062  RH  064%=      5-min Rain = 0
KQU1 171259Z 31006KT 00/06 A3016 RMK A01 T00-00-62  RH  063%=      5-min Rain = 0
KQU1 171300Z 30006KT 00/M06 A3016 RMK A01 T00011062  RH  063%=      5-min Rain = 0
KQU1 171301Z 30006KT 00/M06 A3016 RMK A01 T00031062  RH  062%=      5-min Rain = 0
KQU1 171302Z 30007KT 00/M06 A3016 RMK A01 T00041062  RH  061%=      5-min Rain = 0
KQU1 171303Z 30006KT 01/M06 A3016 RMK A01 T00051063  RH  060%=      5-min Rain = 0
KQU1 171304Z 30006KT 01/M06 A3016 RMK A01 T00061063  RH  060%=      5-min Rain = 0
KQU1 171305Z 29006KT 01/M06 A3016 RMK A01 T00061063  RH  060%=      5-min Rain = 0
KQU1 171306Z 29005KT 01/M06 A3016 RMK A01 T00061063  RH  060%=      5-min Rain = 0
KQU1 171307Z 29004KT 01/M06 A3016 RMK A01 T00051063  RH  060%=      5-min Rain = 0
KQU1 171308Z 28004KT 00/M06 A3016 RMK A01 T00041064  RH  060%=      5-min Rain = 0
KQU1 171309Z 29005KT 00/M06 A3016 RMK A01 T00031064  RH  061%=      5-min Rain = 0
KQU1 171310Z 29005KT 00/M06 A3016 RMK A01 T00011063  RH  062%=      5-min Rain = 0
KQU1 171311Z 29005KT 00/06 A3016 RMK A01 T00000-63  RH  062%=      5-min Rain = 0
KQU1 171312Z 30005KT 00/06 A3016 RMK A01 T00-00-63  RH  063%=      5-min Rain = 0
KQU1 171313Z 30005KT M00/M06 A3016 RMK A01 T10011062  RH  063%=      5-min Rain = 0
KQU1 171314Z 30005KT M00/M06 A3016 RMK A01 T10011063  RH  063%=      5-min Rain = 0
KQU1 171315Z 30005KT M00/M06 A3016 RMK A01 T10011062  RH  063%=      5-min Rain = 0
KQU1 171316Z 30006KT M00/M06 A3016 RMK A01 T10011063  RH  063%=      5-min Rain = 0
KQU1 171317Z 30005KT M00/M06 A3016 RMK A01 T10021063  RH  064%=      5-min Rain = 0
KQU1 171318Z 30006KT M00/M06 A3016 RMK A01 T10041063  RH  064%=      5-min Rain = 0
KQU1 171319Z 30006KT M01/M06 A3016 RMK A01 T10061064  RH  065%=      5-min Rain = 0
KQU1 171320Z 31007KT M01/M06 A3016 RMK A01 T10071063  RH  066%=      5-min Rain = 0
KQU1 171321Z 31007KT M01/M06 A3017 RMK A01 T10081064  RH  066%=      5-min Rain = 0
KQU1 171322Z 31008KT M01/M06 A3017 RMK A01 T10101063  RH  067%=      5-min Rain = 0
KQU1 171323Z 31008KT M01/M06 A3017 RMK A01 T10111063  RH  068%=      5-min Rain = 0
KQU1 171324Z 31008KT M01/M06 A3017 RMK A01 T10121063  RH  068%=      5-min Rain = 0
KQU1 171325Z 31008KT M01/M06 A3017 RMK A01 T10111063  RH  068%=      5-min Rain = 0
KQU1 171326Z 31008KT M01/M06 A3017 RMK A01 T10111063  RH  068%=      5-min Rain = 0
KQU1 171327Z 31008KT M01/M06 A3017 RMK A01 T10111063  RH  068%=      5-min Rain = 0
KQU1 171328Z 31008KT M01/M06 A3017 RMK A01 T10101063  RH  067%=      5-min Rain = 0
KQU1 171329Z 32007KT M01/M06 A3017 RMK A01 T10081063  RH  066%=      5-min Rain = 0
KQU1 171330Z 31008KT M01/M06 A3017 RMK A01 T10051064  RH  064%=      5-min Rain = 0
KQU1 171331Z 31008KT M00/M06 A3017 RMK A01 T10041064  RH  064%=      5-min Rain = 0
KQU1 171332Z 31007KT M00/M06 A3017 RMK A01 T10041064  RH  064%=      5-min Rain = 0
KQU1 171333Z 31007KT M00/M06 A3017 RMK A01 T10041064  RH  064%=      5-min Rain = 0
KQU1 171334Z 32007KT M00/M06 A3017 RMK A01 T10041064  RH  064%=      5-min Rain = 0
KQU1 171335Z 31007KT M00/M06 A3017 RMK A01 T10021064  RH  063%=      5-min Rain = 0
KQU1 171336Z 31007KT M00/M06 A3017 RMK A01 T10011064  RH  063%=      5-min Rain = 0
KQU1 171337Z 31007KT 00/07 A3017 RMK A01 T00000-65  RH  062%=      5-min Rain = 0
KQU1 171338Z 32007KT 00/M07 A3017 RMK A01 T00021065  RH  061%=      5-min Rain = 0
KQU1 171339Z 31007KT 00/M07 A3017 RMK A01 T00031065  RH  060%=      5-min Rain = 0
KQU1 171340Z 31007KT 00/M07 A3017 RMK A01 T00041065  RH  060%=      5-min Rain = 0
KQU1 171341Z 32007KT 00/M07 A3017 RMK A01 T00041065  RH  060%=      5-min Rain = 0
KQU1 171342Z 31007KT 00/M06 A3017 RMK A01 T00041064  RH  060%=      5-min Rain = 0
KQU1 171343Z 31007KT 00/M07 A3017 RMK A01 T00041065  RH  060%=      5-min Rain = 0
KQU1 171344Z 32006KT 00/M06 A3017 RMK A01 T00031064  RH  060%=      5-min Rain = 0
KQU1 171345Z 32007KT 01/M07 A3017 RMK A01 T00051065  RH  060%=      5-min Rain = 0
KQU1 171346Z 32007KT 01/M07 A3017 RMK A01 T00051065  RH  059%=      5-min Rain = 0
KQU1 171347Z 32007KT 01/M07 A3017 RMK A01 T00051065  RH  059%=      5-min Rain = 0
KQU1 171348Z 32007KT 01/M07 A3017 RMK A01 T00051065  RH  060%=      5-min Rain = 0
KQU1 171349Z 32006KT 00/M07 A3017 RMK A01 T00041065  RH  060%=      5-min Rain = 0
KQU1 171350Z 31007KT 00/M07 A3017 RMK A01 T00041065  RH  060%=      5-min Rain = 0
KQU1 171351Z 32007KT 00/M07 A3017 RMK A01 T00041065  RH  060%=      5-min Rain = 0
KQU1 171352Z 31007KT 00/M07 A3017 RMK A01 T00041065  RH  060%=      5-min Rain = 0
KQU1 171353Z 31007KT 00/M06 A3017 RMK A01 T00041064  RH  060%=      5-min Rain = 0
KQU1 171354Z 32007KT 00/M07 A3017 RMK A01 T00041065  RH  060%=      5-min Rain = 0
KQU1 171355Z 32007KT 01/M07 A3017 RMK A01 T00061065  RH  059%=      5-min Rain = 0
KQU1 171356Z 32007KT 01/M07 A3017 RMK A01 T00081066  RH  058%=      5-min Rain = 0
KQU1 171357Z 32007KT 01/M07 A3017 RMK A01 T00101066  RH  057%=      5-min Rain = 0
KQU1 171358Z 32006KT 01/M07 A3017 RMK A01 T00101066  RH  057%=      5-min Rain = 0
KQU1 171359Z 32006KT 01/M07 A3018 RMK A01 T00101066  RH  057%=      5-min Rain = 0
KQU1 171400Z 31006KT 01/M07 A3018 RMK A01 T00101066  RH  057%=      5-min Rain = 0
KQU1 171401Z 32007KT 01/M07 A3018 RMK A01 T00101066  RH  057%=      5-min Rain = 0
KQU1 171402Z 31006KT 01/M07 A3018 RMK A01 T00101065  RH  057%=      5-min Rain = 0
KQU1 171403Z 32006KT 01/M07 A3018 RMK A01 T00091065  RH  058%=      5-min Rain = 0
KQU1 171404Z 32006KT 01/M07 A3018 RMK A01 T00091065  RH  058%=      5-min Rain = 0
KQU1 171405Z 32006KT 01/M07 A3018 RMK A01 T00101066  RH  057%=      5-min Rain = 0
KQU1 171406Z 33006KT 01/M07 A3018 RMK A01 T00111066  RH  056%=      5-min Rain = 0
KQU1 171407Z 32007KT 01/M07 A3018 RMK A01 T00121066  RH  056%=      5-min Rain = 0
KQU1 171408Z 34008KT 01/M07 A3018 RMK A01 T00141066  RH  055%=      5-min Rain = 0
KQU1 171409Z 33006KT 02/M07 A3018 RMK A01 T00201067  RH  053%=      5-min Rain = 0
KQU1 171410Z 33006KT 02/M07 A3018 RMK A01 T00201067  RH  052%=      5-min Rain = 0
KQU1 171411Z 34006KT 02/M07 A3018 RMK A01 T00191066  RH  053%=      5-min Rain = 0
KQU1 171412Z 32005KT 02/M07 A3017 RMK A01 T00201066  RH  053%=      5-min Rain = 0
KQU1 171413Z 34007KT 02/M07 A3017 RMK A01 T00201066  RH  053%=      5-min Rain = 0
KQU1 171414Z 33005KT 02/M07 A3017 RMK A01 T00231066  RH  052%=      5-min Rain = 0
KQU1 171415Z 34005KT 03/M07 A3017 RMK A01 T00261067  RH  050%=      5-min Rain = 0
KQU1 171416Z 34005G11KT 03/M07 A3017 RMK A01 T00291068  RH  049%=      5-min Rain = 0
KQU1 171417Z 33006KT 03/M07 A3017 RMK A01 T00311067  RH  049%=      5-min Rain = 0
KQU1 171418Z 33006KT 03/M07 A3017 RMK A01 T00291067  RH  049%=      5-min Rain = 0
KQU1 171419Z 34006KT 03/M07 A3017 RMK A01 T00281066  RH  050%=      5-min Rain = 0
KQU1 171420Z 35006KT 03/M07 A3017 RMK A01 T00301067  RH  049%=      5-min Rain = 0
KQU1 171421Z 33006KT 03/M07 A3017 RMK A01 T00321067  RH  048%=      5-min Rain = 0
KQU1 171422Z 34007KT 04/M07 A3017 RMK A01 T00361069  RH  046%=      5-min Rain = 0
KQU1 171423Z 35007KT 04/M07 A3017 RMK A01 T00391069  RH  045%=      5-min Rain = 0
KQU1 171424Z 34007KT 04/M07 A3017 RMK A01 T00401068  RH  045%=      5-min Rain = 0
KQU1 171425Z 33007KT 04/M07 A3017 RMK A01 T00421068  RH  045%=      5-min Rain = 0
KQU1 171426Z 34007KT 04/M07 A3017 RMK A01 T00421069  RH  044%=      5-min Rain = 0
KQU1 171427Z 33006KT 04/M07 A3017 RMK A01 T00421067  RH  045%=      5-min Rain = 0
KQU1 171428Z 34007KT 04/M07 A3017 RMK A01 T00431070  RH  044%=      5-min Rain = 0
KQU1 171429Z 34007KT 04/M07 A3017 RMK A01 T00441070  RH  043%=      5-min Rain = 0
KQU1 171430Z 34006KT 04/M07 A3017 RMK A01 T00441069  RH  044%=      5-min Rain = 0
KQU1 171431Z 34007KT 04/M07 A3017 RMK A01 T00441070  RH  043%=      5-min Rain = 0
KQU1 171432Z 34005KT 05/M07 A3017 RMK A01 T00451069  RH  043%=      5-min Rain = 0
KQU1 171433Z 33005KT 05/M07 A3017 RMK A01 T00451070  RH  043%=      5-min Rain = 0
KQU1 171434Z 34005KT 05/M07 A3017 RMK A01 T00451069  RH  044%=      5-min Rain = 0
KQU1 171435Z 34005KT 04/M07 A3017 RMK A01 T00441069  RH  044%=      5-min Rain = 0
KQU1 171436Z 33006KT 05/M07 A3017 RMK A01 T00451070  RH  043%=      5-min Rain = 0
KQU1 171437Z 35006KT 05/M07 A3017 RMK A01 T00451070  RH  043%=      5-min Rain = 0
KQU1 171438Z 35005KT 05/M07 A3017 RMK A01 T00461071  RH  042%=      5-min Rain = 0
KQU1 171439Z 34005KT 05/M07 A3017 RMK A01 T00461069  RH  043%=      5-min Rain = 0
KQU1 171440Z 34006KT 05/M07 A3017 RMK A01 T00461070  RH  043%=      5-min Rain = 0
KQU1 171441Z 34005KT 05/M07 A3017 RMK A01 T00461069  RH  043%=      5-min Rain = 0
KQU1 171442Z 35006KT 05/M07 A3017 RMK A01 T00461070  RH  043%=      5-min Rain = 0
KQU1 171443Z 34006KT 05/M07 A3017 RMK A01 T00471071  RH  042%=      5-min Rain = 0
KQU1 171444Z 35006KT 05/M07 A3017 RMK A01 T00471071  RH  042%=      5-min Rain = 0
KQU1 171445Z 34006KT 05/M07 A3018 RMK A01 T00471070  RH  042%=      5-min Rain = 0
KQU1 171446Z 35005KT 05/M07 A3018 RMK A01 T00471071  RH  042%=      5-min Rain = 0
KQU1 171447Z 35006KT 05/M07 A3018 RMK A01 T00471068  RH  043%=      5-min Rain = 0
KQU1 171448Z 34006KT 05/M07 A3018 RMK A01 T00471070  RH  043%=      5-min Rain = 0
KQU1 171449Z 34006KT 05/M07 A3018 RMK A01 T00471069  RH  043%=      5-min Rain = 0
KQU1 171450Z 35007KT 05/M07 A3018 RMK A01 T00471070  RH  042%=      5-min Rain = 0
KQU1 171451Z 35006KT 05/M07 A3018 RMK A01 T00471070  RH  042%=      5-min Rain = 0
KQU1 171452Z 35005KT 05/M07 A3018 RMK A01 T00471069  RH  043%=      5-min Rain = 0
KQU1 171453Z 36006KT 05/M07 A3018 RMK A01 T00471069  RH  043%=      5-min Rain = 0
KQU1 171454Z 35006KT 05/M07 A3019 RMK A01 T00471068  RH  043%=      5-min Rain = 0
KQU1 171455Z 35007KT 05/M07 A3019 RMK A01 T00471068  RH  043%=      5-min Rain = 0
KQU1 171456Z 35007KT 05/M07 A3019 RMK A01 T00481069  RH  042%=      5-min Rain = 0
KQU1 171457Z 34006KT 05/M07 A3019 RMK A01 T00481069  RH  042%=      5-min Rain = 0
KQU1 171458Z 35006KT 05/M07 A3019 RMK A01 T00481069  RH  042%=      5-min Rain = 0
KQU1 171459Z 34006KT 05/M07 A3019 RMK A01 T00481070  RH  042%=      5-min Rain = 0
KQU1 171500Z 35007KT 05/M07 A3019 RMK A01 T00491069  RH  042%=      5-min Rain = 0
KQU1 171501Z 35007KT 05/M07 A3019 RMK A01 T00491070  RH  042%=      5-min Rain = 0
KQU1 171502Z 35006KT 05/M07 A3019 RMK A01 T00491069  RH  042%=      5-min Rain = 0
KQU1 171503Z 35007KT 05/M07 A3019 RMK A01 T00491069  RH  042%=      5-min Rain = 0
KQU1 171504Z 35006KT 05/M07 A3019 RMK A01 T00481068  RH  043%=      5-min Rain = 0
KQU1 171505Z 35005KT 05/M07 A302 RMK A01 T00481068  RH  043%=      5-min Rain = 0
KQU1 171506Z 34005KT 05/M07 A302 RMK A01 T00481070  RH  042%=      5-min Rain = 0
KQU1 171507Z 34005KT 05/M07 A302 RMK A01 T00481068  RH  043%=      5-min Rain = 0
KQU1 171508Z 35006KT 05/M07 A302 RMK A01 T00481066  RH  043%=      5-min Rain = 0
KQU1 171509Z 34006KT 05/M07 A302 RMK A01 T00481068  RH  043%=      5-min Rain = 0
KQU1 171510Z 36006KT 05/M07 A302 RMK A01 T00481069  RH  042%=      5-min Rain = 0
KQU1 171511Z 35006KT 05/M07 A302 RMK A01 T00481070  RH  042%=      5-min Rain = 0
KQU1 171512Z 35006KT 05/M07 A302 RMK A01 T00481069  RH  043%=      5-min Rain = 0
KQU1 171513Z 34006KT 05/M07 A302 RMK A01 T00481068  RH  043%=      5-min Rain = 0
KQU1 171514Z 35009KT 05/M07 A302 RMK A01 T00481071  RH  042%=      5-min Rain = 0
KQU1 171515Z 35006KT 05/M07 A302 RMK A01 T00481070  RH  042%=      5-min Rain = 0
KQU1 171516Z 35005KT 05/M07 A302 RMK A01 T00481068  RH  043%=      5-min Rain = 0
KQU1 171517Z 35004KT 05/M07 A302 RMK A01 T00481067  RH  043%=      5-min Rain = 0
KQU1 171518Z 35006KT 05/M07 A302 RMK A01 T00471068  RH  043%=      5-min Rain = 0
KQU1 171519Z 00005KT 05/M07 A302 RMK A01 T00481069  RH  042%=      5-min Rain = 0
KQU1 171520Z 34005KT 05/M07 A302 RMK A01 T00481068  RH  043%=      5-min Rain = 0
KQU1 171521Z 36005KT 05/M07 A3019 RMK A01 T00481067  RH  043%=      5-min Rain = 0
KQU1 171522Z 35005KT 05/M07 A3019 RMK A01 T00481068  RH  043%=      5-min Rain = 0
KQU1 171523Z 34006KT 05/M07 A3019 RMK A01 T00481069  RH  042%=      5-min Rain = 0
KQU1 171524Z 35005KT 05/M07 A302 RMK A01 T00481069  RH  042%=      5-min Rain = 0
KQU1 171525Z 36005KT 05/M07 A302 RMK A01 T00481069  RH  042%=      5-min Rain = 0
KQU1 171526Z 35004KT 05/M07 A302 RMK A01 T00481068  RH  042%=      5-min Rain = 0
KQU1 171527Z 34005KT 05/M07 A302 RMK A01 T00491068  RH  042%=      5-min Rain = 0
KQU1 171528Z 33006KT 05/M07 A302 RMK A01 T00491068  RH  043%=      5-min Rain = 0
KQU1 171529Z 35004KT 05/M07 A302 RMK A01 T00491069  RH  042%=      5-min Rain = 0
KQU1 171530Z 35006KT 05/M07 A302 RMK A01 T00491068  RH  042%=      5-min Rain = 0
KQU1 171531Z 34008KT 05/M07 A302 RMK A01 T00491070  RH  042%=      5-min Rain = 0
KQU1 171532Z 34007KT 05/M07 A302 RMK A01 T00491070  RH  042%=      5-min Rain = 0
KQU1 171533Z 35006KT 05/M07 A302 RMK A01 T00491069  RH  042%=      5-min Rain = 0
KQU1 171534Z 36005KT 05/M07 A302 RMK A01 T00491068  RH  042%=      5-min Rain = 0
KQU1 171535Z 36005KT 05/M07 A302 RMK A01 T00491067  RH  043%=      5-min Rain = 0
KQU1 171536Z 35004KT 05/M07 A302 RMK A01 T00501067  RH  043%=      5-min Rain = 0
KQU1 171537Z 36005KT 05/M07 A302 RMK A01 T00501067  RH  042%=      5-min Rain = 0
KQU1 171538Z 35006KT 05/M07 A302 RMK A01 T00511068  RH  042%=      5-min Rain = 0
KQU1 171539Z 35006KT 05/M07 A302 RMK A01 T00511066  RH  042%=      5-min Rain = 0
KQU1 171540Z 35005KT 05/M07 A302 RMK A01 T00521066  RH  042%=      5-min Rain = 0
KQU1 171541Z 35007KT 05/M07 A302 RMK A01 T00531068  RH  041%=      5-min Rain = 0
KQU1 171542Z 35005KT 05/M07 A302 RMK A01 T00541066  RH  042%=      5-min Rain = 0
KQU1 171543Z 36006KT 06/M07 A302 RMK A01 T00551065  RH  042%=      5-min Rain = 0
KQU1 171544Z 35005KT 06/M06 A302 RMK A01 T00561064  RH  042%=      5-min Rain = 0
KQU1 171545Z 34005KT 06/M06 A302 RMK A01 T00571062  RH  042%=      5-min Rain = 0
KQU1 171546Z 34007KT 06/M07 A302 RMK A01 T00581065  RH  041%=      5-min Rain = 0
KQU1 171547Z 36006KT 06/M07 A302 RMK A01 T00581066  RH  040%=      5-min Rain = 0
KQU1 171548Z 35007KT 06/M07 A302 RMK A01 T00571068  RH  040%=      5-min Rain = 0
KQU1 171549Z 35005KT 06/M07 A302 RMK A01 T00571067  RH  040%=      5-min Rain = 0
KQU1 171550Z 36007KT 06/M07 A3021 RMK A01 T00581068  RH  040%=      5-min Rain = 0
KQU1 171551Z 34007KT 06/M07 A3021 RMK A01 T00581066  RH  040%=      5-min Rain = 0
KQU1 171552Z 35008KT 06/M07 A3021 RMK A01 T00581068  RH  040%=      5-min Rain = 0
KQU1 171553Z 35008KT 06/M07 A3021 RMK A01 T00581068  RH  040%=      5-min Rain = 0
KQU1 171554Z 35007KT 06/M07 A3021 RMK A01 T00591067  RH  040%=      5-min Rain = 0
KQU1 171555Z 34007KT 06/M07 A3021 RMK A01 T00581070  RH  039%=      5-min Rain = 0
KQU1 171556Z 35007KT 06/M07 A3021 RMK A01 T00591068  RH  040%=      5-min Rain = 0
KQU1 171557Z 00006KT 06/M07 A3021 RMK A01 T00591066  RH  040%=      5-min Rain = 0
KQU1 171558Z 36006KT 06/M07 A3021 RMK A01 T00601065  RH  040%=      5-min Rain = 0
KQU1 171559Z 01006KT 06/M07 A3021 RMK A01 T00601065  RH  040%=      5-min Rain = 0
KQU1 171600Z 35007KT 06/M07 A3021 RMK A01 T00601065  RH  040%=      5-min Rain = 0
KQU1 171601Z 35008KT 06/M07 A3021 RMK A01 T00601067  RH  040%=      5-min Rain = 0
KQU1 171602Z 35006KT 06/M07 A3021 RMK A01 T00611067  RH  039%=      5-min Rain = 0
KQU1 171603Z 36005G10KT 06/M06 A3021 RMK A01 T00621063  RH  040%=      5-min Rain = 0
KQU1 171604Z 36009KT 06/M07 A3021 RMK A01 T00621067  RH  039%=      5-min Rain = 0
KQU1 171605Z 36009KT 06/M07 A3021 RMK A01 T00621066  RH  039%=      5-min Rain = 0
KQU1 171606Z 36007KT 06/M06 A3021 RMK A01 T00621064  RH  040%=      5-min Rain = 0
KQU1 171607Z 35006KT 06/M06 A3021 RMK A01 T00631063  RH  040%=      5-min Rain = 0
KQU1 171608Z 00009KT 06/M07 A3021 RMK A01 T00641065  RH  039%=      5-min Rain = 0
KQU1 171609Z 01007KT 06/M06 A3021 RMK A01 T00641064  RH  039%=      5-min Rain = 0
KQU1 171610Z 34009G14KT 07/M06 A3021 RMK A01 T00651063  RH  039%=      5-min Rain = 0
KQU1 171611Z 35010KT 07/M07 A3021 RMK A01 T00651067  RH  038%=      5-min Rain = 0
KQU1 171612Z 36010KT 07/M07 A3021 RMK A01 T00651065  RH  039%=      5-min Rain = 0
KQU1 171613Z 36009KT 07/M07 A3021 RMK A01 T00651066  RH  039%=      5-min Rain = 0
KQU1 171614Z 35008KT 07/M06 A3021 RMK A01 T00651064  RH  039%=      5-min Rain = 0
KQU1 171615Z 35010KT 07/M07 A3021 RMK A01 T00661065  RH  039%=      5-min Rain = 0
KQU1 171616Z 34009KT 07/M06 A3021 RMK A01 T00661064  RH  039%=      5-min Rain = 0
KQU1 171617Z 35008KT 07/M06 A3022 RMK A01 T00671063  RH  039%=      5-min Rain = 0
KQU1 171618Z 35010KT 07/M06 A3022 RMK A01 T00671064  RH  039%=      5-min Rain = 0
KQU1 171619Z 35011KT 07/M07 A3022 RMK A01 T00671065  RH  038%=      5-min Rain = 0
KQU1 171620Z 35009KT 07/M07 A3022 RMK A01 T00671065  RH  038%=      5-min Rain = 0
KQU1 171621Z 35008KT 07/M07 A3022 RMK A01 T00661065  RH  039%=      5-min Rain = 0
KQU1 171622Z 35007KT 07/M06 A3022 RMK A01 T00671063  RH  039%=      5-min Rain = 0
KQU1 171623Z 36007KT 07/M06 A3022 RMK A01 T00671063  RH  039%=      5-min Rain = 0
KQU1 171624Z 00008KT 07/M07 A3021 RMK A01 T00681065  RH  038%=      5-min Rain = 0
KQU1 171625Z 00006KT 07/M06 A3021 RMK A01 T00681063  RH  039%=      5-min Rain = 0
KQU1 171626Z 36006KT 07/M06 A3022 RMK A01 T00691061  RH  039%=      5-min Rain = 0
KQU1 171627Z 36007KT 07/M06 A3022 RMK A01 T00701063  RH  038%=      5-min Rain = 0
KQU1 171628Z 00008KT 07/M06 A3022 RMK A01 T00701062  RH  038%=      5-min Rain = 0
KQU1 171629Z 35007G12KT 07/M06 A3021 RMK A01 T00701061  RH  039%=      5-min Rain = 0
KQU1 171630Z 35008KT 07/M06 A3021 RMK A01 T00711063  RH  038%=      5-min Rain = 0
KQU1 171631Z 34008KT 07/M06 A3021 RMK A01 T00711063  RH  038%=      5-min Rain = 0
KQU1 171632Z 34007KT 07/M06 A3021 RMK A01 T00711062  RH  038%=      5-min Rain = 0
KQU1 171633Z 33006KT 07/M06 A3021 RMK A01 T00721064  RH  037%=      5-min Rain = 0
KQU1 171634Z 34006KT 07/M06 A3021 RMK A01 T00721062  RH  038%=      5-min Rain = 0
KQU1 171635Z 00008KT 07/M06 A3021 RMK A01 T00731063  RH  037%=      5-min Rain = 0
KQU1 171636Z 02006KT 07/M06 A3021 RMK A01 T00731064  RH  037%=      5-min Rain = 0
KQU1 171637Z 35005KT 07/M06 A3021 RMK A01 T00731061  RH  038%=      5-min Rain = 0
KQU1 171638Z 34007KT 07/M06 A3021 RMK A01 T00731064  RH  037%=      5-min Rain = 0
KQU1 171639Z 35008KT 07/M06 A3021 RMK A01 T00721064  RH  037%=      5-min Rain = 0
KQU1 171640Z 34007KT 07/M06 A3021 RMK A01 T00721064  RH  037%=      5-min Rain = 0
KQU1 171641Z 35007KT 07/M06 A3021 RMK A01 T00721063  RH  038%=      5-min Rain = 0
KQU1 171642Z 34006KT 07/M06 A3021 RMK A01 T00731062  RH  038%=      5-min Rain = 0
KQU1 171643Z 34007KT 07/M06 A3021 RMK A01 T00741062  RH  038%=      5-min Rain = 0
KQU1 171644Z 01006KT 07/M06 A3021 RMK A01 T00741062  RH  037%=      5-min Rain = 0
KQU1 171645Z 01005KT 08/M06 A3021 RMK A01 T00751059  RH  038%=      5-min Rain = 0
KQU1 171646Z 02007KT 08/M06 A3021 RMK A01 T00751061  RH  037%=      5-min Rain = 0
KQU1 171647Z 01005KT 07/M06 A3021 RMK A01 T00741061  RH  038%=      5-min Rain = 0
KQU1 171648Z 36005KT 07/M06 A3021 RMK A01 T00741062  RH  037%=      5-min Rain = 0
KQU1 171649Z 01004KT 08/M06 A3021 RMK A01 T00751059  RH  038%=      5-min Rain = 0
KQU1 171650Z 01006KT 08/M06 A3021 RMK A01 T00761058  RH  038%=      5-min Rain = 0
KQU1 171651Z 02004KT 08/M06 A3021 RMK A01 T00761060  RH  037%=      5-min Rain = 0
KQU1 171652Z 02005KT 08/M06 A3021 RMK A01 T00761060  RH  037%=      5-min Rain = 0
KQU1 171653Z 03005KT 08/M06 A3021 RMK A01 T00761057  RH  038%=      5-min Rain = 0
KQU1 171654Z 34008KT 08/M06 A3021 RMK A01 T00761061  RH  037%=      5-min Rain = 0
KQU1 171655Z 35005KT 08/M06 A3021 RMK A01 T00751062  RH  037%=      5-min Rain = 0
KQU1 171656Z 36008KT 08/M06 A3021 RMK A01 T00751061  RH  037%=      5-min Rain = 0
KQU1 171657Z 35009KT 08/M06 A3021 RMK A01 T00751064  RH  037%=      5-min Rain = 0
KQU1 171658Z 34008KT 08/M06 A3021 RMK A01 T00751061  RH  038%=      5-min Rain = 0
KQU1 171659Z 35008KT 08/M06 A3021 RMK A01 T00751061  RH  037%=      5-min Rain = 0
KQU1 171700Z 35008KT 08/M06 A3021 RMK A01 T00751063  RH  037%=      5-min Rain = 0
KQU1 171701Z 35006KT 08/M06 A3021 RMK A01 T00751059  RH  038%=      5-min Rain = 0
KQU1 171702Z 02008KT 08/M06 A3021 RMK A01 T00751061  RH  037%=      5-min Rain = 0
KQU1 171703Z 02006KT 08/M06 A3021 RMK A01 T00761059  RH  038%=      5-min Rain = 0
KQU1 171704Z 34008KT 08/M06 A3021 RMK A01 T00771059  RH  037%=      5-min Rain = 0
KQU1 171705Z 34010KT 08/M07 A3021 RMK A01 T00751065  RH  036%=      5-min Rain = 0
KQU1 171706Z 35006KT 07/M06 A3021 RMK A01 T00741064  RH  037%=      5-min Rain = 0
KQU1 171707Z 00007KT 08/M06 A3021 RMK A01 T00751062  RH  037%=      5-min Rain = 0
KQU1 171708Z 02007KT 08/M06 A3021 RMK A01 T00761064  RH  037%=      5-min Rain = 0
KQU1 171709Z 02007KT 08/M06 A3021 RMK A01 T00761064  RH  036%=      5-min Rain = 0
KQU1 171710Z 00006KT 08/M06 A3021 RMK A01 T00761062  RH  037%=      5-min Rain = 0
KQU1 171711Z 34009KT 08/M06 A3021 RMK A01 T00771062  RH  037%=      5-min Rain = 0
KQU1 171712Z 35008KT 08/M06 A3021 RMK A01 T00761062  RH  037%=      5-min Rain = 0
KQU1 171713Z 35009KT 08/M07 A3021 RMK A01 T00761065  RH  036%=      5-min Rain = 0
KQU1 171714Z 35007KT 08/M06 A3021 RMK A01 T00761064  RH  036%=      5-min Rain = 0
KQU1 171715Z 34005KT 08/M06 A3021 RMK A01 T00781063  RH  036%=      5-min Rain = 0
KQU1 171716Z 33006KT 08/M07 A3021 RMK A01 T00771065  RH  036%=      5-min Rain = 0
KQU1 171717Z 33007KT 08/M06 A3021 RMK A01 T00791063  RH  036%=      5-min Rain = 0
KQU1 171718Z 35008KT 08/M07 A3021 RMK A01 T00801065  RH  035%=      5-min Rain = 0
KQU1 171719Z 01007KT 08/M07 A3021 RMK A01 T00801067  RH  034%=      5-min Rain = 0
KQU1 171720Z 01004KT 08/M07 A3021 RMK A01 T00811066  RH  035%=      5-min Rain = 0
KQU1 171721Z 36008KT 08/M07 A3021 RMK A01 T00811067  RH  034%=      5-min Rain = 0
KQU1 171722Z 00004KT 08/M06 A3021 RMK A01 T00811063  RH  035%=      5-min Rain = 0
KQU1 171723Z 35005KT 08/M07 A3021 RMK A01 T00821065  RH  035%=      5-min Rain = 0
KQU1 171724Z 36003KT 08/M06 A3021 RMK A01 T00821064  RH  035%=      5-min Rain = 0
KQU1 171725Z 34006KT 08/M07 A3021 RMK A01 T00831066  RH  034%=      5-min Rain = 0
KQU1 171726Z 33007KT 08/M07 A302 RMK A01 T00831073  RH  032%=      5-min Rain = 0
KQU1 171727Z 33005KT 08/M07 A302 RMK A01 T00831070  RH  033%=      5-min Rain = 0
KQU1 171728Z 35007KT 08/M07 A302 RMK A01 T00841073  RH  032%=      5-min Rain = 0
KQU1 171729Z 34008KT 09/M08 A302 RMK A01 T00851075  RH  032%=      5-min Rain = 0
KQU1 171730Z 35008KT 09/M07 A302 RMK A01 T00851074  RH  032%=      5-min Rain = 0
KQU1 171731Z 34007KT 08/M07 A302 RMK A01 T00841073  RH  032%=      5-min Rain = 0
KQU1 171732Z 35007KT 08/M07 A302 RMK A01 T00831072  RH  033%=      5-min Rain = 0
KQU1 171733Z 36007KT 08/M07 A302 RMK A01 T00831072  RH  033%=      5-min Rain = 0
KQU1 171734Z 02004KT 08/M07 A302 RMK A01 T00831069  RH  033%=      5-min Rain = 0
KQU1 171735Z 35007KT 08/M07 A302 RMK A01 T00841071  RH  033%=      5-min Rain = 0
KQU1 171736Z 35006KT 08/M07 A302 RMK A01 T00841073  RH  032%=      5-min Rain = 0
KQU1 171737Z 34004KT 09/M07 A302 RMK A01 T00851069  RH  033%=      5-min Rain = 0
KQU1 171738Z 02001KT 09/M07 A302 RMK A01 T00871066  RH  033%=      5-min Rain = 0
KQU1 171739Z 04005KT 09/M07 A302 RMK A01 T00891072  RH  031%=      5-min Rain = 0
KQU1 171740Z 03004KT 09/M08 A302 RMK A01 T00891081  RH  029%=      5-min Rain = 0
KQU1 171741Z 04005KT 09/M08 A302 RMK A01 T00881080  RH  030%=      5-min Rain = 0
KQU1 171742Z 01004KT 09/M08 A302 RMK A01 T00881077  RH  030%=      5-min Rain = 0
KQU1 171743Z 36006KT 09/M07 A302 RMK A01 T00881069  RH  032%=      5-min Rain = 0
KQU1 171744Z 01005KT 09/M07 A302 RMK A01 T00871072  RH  032%=      5-min Rain = 0
KQU1 171745Z 01003KT 09/M07 A302 RMK A01 T00871072  RH  032%=      5-min Rain = 0
KQU1 171746Z 35003KT 09/M08 A302 RMK A01 T00871075  RH  031%=      5-min Rain = 0
KQU1 171747Z 34003KT 09/M08 A302 RMK A01 T00881075  RH  031%=      5-min Rain = 0
KQU1 171748Z 03004KT 09/M07 A3019 RMK A01 T00901072  RH  031%=      5-min Rain = 0
KQU1 171749Z 03006KT 09/M08 A3019 RMK A01 T00901080  RH  029%=      5-min Rain = 0
KQU1 171750Z 04004KT 09/M08 A3019 RMK A01 T00901079  RH  030%=      5-min Rain = 0
KQU1 171751Z 35004KT 09/M07 A3019 RMK A01 T00901073  RH  031%=      5-min Rain = 0
KQU1 171752Z 34008KT 09/M08 A3019 RMK A01 T00911082  RH  029%=      5-min Rain = 0
KQU1 171753Z 35008KT 09/M08 A3019 RMK A01 T00901081  RH  029%=      5-min Rain = 0
KQU1 171754Z 34005KT 09/M08 A3019 RMK A01 T00901082  RH  029%=      5-min Rain = 0
KQU1 171755Z 35005KT 09/M08 A3019 RMK A01 T00901081  RH  029%=      5-min Rain = 0
KQU1 171756Z 04004KT 09/M08 A3019 RMK A01 T00911081  RH  029%=      5-min Rain = 0
KQU1 171757Z 03006KT 09/M08 A3018 RMK A01 T00911080  RH  029%=      5-min Rain = 0
KQU1 171758Z 03005KT 09/M08 A3018 RMK A01 T00911079  RH  029%=      5-min Rain = 0
KQU1 171759Z 01004KT 09/M08 A3018 RMK A01 T00901079  RH  029%=      5-min Rain = 0
KQU1 171800Z 03005KT 09/M08 A3018 RMK A01 T00911076  RH  030%=      5-min Rain = 0
KQU1 171801Z 02005KT 09/M08 A3018 RMK A01 T00911076  RH  030%=      5-min Rain = 0
KQU1 171802Z 03003KT 09/M08 A3018 RMK A01 T00921075  RH  030%=      5-min Rain = 0
KQU1 171803Z 00002KT 09/M07 A3018 RMK A01 T00931074  RH  030%=      5-min Rain = 0
KQU1 171804Z 00002KT 09/M07 A3018 RMK A01 T00931071  RH  031%=      5-min Rain = 0
KQU1 171805Z 02005KT 10/M08 A3018 RMK A01 T00951076  RH  029%=      5-min Rain = 0
KQU1 171806Z 00006KT 09/M08 A3018 RMK A01 T00941077  RH  029%=      5-min Rain = 0
KQU1 171807Z 00006KT 09/M08 A3017 RMK A01 T00931076  RH  030%=      5-min Rain = 0
KQU1 171808Z 01003KT 09/M08 A3017 RMK A01 T00931078  RH  029%=      5-min Rain = 0
KQU1 171809Z 01005KT 09/M07 A3017 RMK A01 T00941074  RH  030%=      5-min Rain = 0
KQU1 171810Z 01006KT 09/M08 A3017 RMK A01 T00941079  RH  029%=      5-min Rain = 0
KQU1 171811Z 01006KT 09/M08 A3017 RMK A01 T00931079  RH  029%=      5-min Rain = 0
KQU1 171812Z 00005KT 09/M08 A3017 RMK A01 T00931079  RH  029%=      5-min Rain = 0
KQU1 171813Z 04004G9KT 09/M08 A3017 RMK A01 T00931077  RH  029%=      5-min Rain = 0
KQU1 171814Z 04007KT 09/M08 A3017 RMK A01 T00931079  RH  029%=      5-min Rain = 0
KQU1 171815Z 05006KT 09/M08 A3017 RMK A01 T00931080  RH  029%=      5-min Rain = 0
KQU1 171816Z 03007KT 09/M08 A3017 RMK A01 T00941078  RH  029%=      5-min Rain = 0
KQU1 171817Z 35007KT 10/M08 A3017 RMK A01 T00951080  RH  028%=      5-min Rain = 0
KQU1 171818Z 35006KT 09/M08 A3017 RMK A01 T00941083  RH  028%=      5-min Rain = 0
KQU1 171819Z 36007KT 09/M08 A3017 RMK A01 T00941079  RH  029%=      5-min Rain = 0
KQU1 171820Z 00009KT 09/M08 A3016 RMK A01 T00941082  RH  028%=      5-min Rain = 0
KQU1 171821Z 00008KT 09/M08 A3016 RMK A01 T00931082  RH  028%=      5-min Rain = 0
KQU1 171822Z 01006KT 09/M08 A3016 RMK A01 T00931082  RH  028%=      5-min Rain = 0
KQU1 171823Z 01004KT 09/M08 A3016 RMK A01 T00931079  RH  029%=      5-min Rain = 0
KQU1 171824Z 00008KT 10/M08 A3016 RMK A01 T00951082  RH  028%=      5-min Rain = 0
KQU1 171825Z 01008KT 09/M08 A3016 RMK A01 T00941082  RH  028%=      5-min Rain = 0
KQU1 171826Z 01005KT 09/M08 A3016 RMK A01 T00931081  RH  028%=      5-min Rain = 0
KQU1 171827Z 03005KT 09/M08 A3016 RMK A01 T00941078  RH  029%=      5-min Rain = 0
KQU1 171828Z 04006KT 10/M08 A3016 RMK A01 T00951082  RH  028%=      5-min Rain = 0
KQU1 171829Z 04005KT 10/M08 A3016 RMK A01 T00951080  RH  028%=      5-min Rain = 0
KQU1 171830Z 04006KT 10/M08 A3016 RMK A01 T00951078  RH  029%=      5-min Rain = 0
KQU1 171831Z 04006KT 09/M08 A3015 RMK A01 T00941080  RH  028%=      5-min Rain = 0
KQU1 171832Z 04007KT 09/M08 A3015 RMK A01 T00941078  RH  029%=      5-min Rain = 0
KQU1 171833Z 03009KT 09/M08 A3015 RMK A01 T00941081  RH  028%=      5-min Rain = 0
KQU1 171834Z 03007KT 09/M08 A3015 RMK A01 T00931079  RH  029%=      5-min Rain = 0
KQU1 171835Z 02005KT 09/M08 A3015 RMK A01 T00931077  RH  029%=      5-min Rain = 0
KQU1 171836Z 03006KT 09/M08 A3015 RMK A01 T00941077  RH  029%=      5-min Rain = 0
KQU1 171837Z 04005KT 09/M08 A3015 RMK A01 T00941076  RH  029%=      5-min Rain = 0
KQU1 171838Z 05006KT 09/M08 A3015 RMK A01 T00941078  RH  029%=      5-min Rain = 0
KQU1 171839Z 05004KT 10/M08 A3015 RMK A01 T00951078  RH  029%=      5-min Rain = 0
KQU1 171840Z 01004KT 10/M08 A3015 RMK A01 T00971075  RH  029%=      5-min Rain = 0
KQU1 171841Z 03003KT 10/M08 A3015 RMK A01 T00981078  RH  028%=      5-min Rain = 0
KQU1 171842Z 03004KT 10/M08 A3015 RMK A01 T00981076  RH  028%=      5-min Rain = 0
KQU1 171843Z 01005KT 10/M07 A3015 RMK A01 T00991071  RH  029%=      5-min Rain = 0
KQU1 171844Z 01003KT 10/M07 A3015 RMK A01 T01011071  RH  029%=      5-min Rain = 0
KQU1 171845Z 36006KT 10/M07 A3015 RMK A01 T01021074  RH  028%=      5-min Rain = 0
KQU1 171846Z 01006KT 10/M08 A3015 RMK A01 T01011078  RH  028%=      5-min Rain = 0
KQU1 171847Z 35007KT 10/M08 A3015 RMK A01 T00991079  RH  028%=      5-min Rain = 0
KQU1 171848Z 01005KT 10/M08 A3015 RMK A01 T00981078  RH  028%=      5-min Rain = 0
KQU1 171849Z 01003KT 10/M08 A3015 RMK A01 T00991076  RH  028%=      5-min Rain = 0
KQU1 171850Z 00003KT 10/M07 A3015 RMK A01 T01011071  RH  029%=      5-min Rain = 0
KQU1 171851Z 01004KT 10/M07 A3014 RMK A01 T01021073  RH  028%=      5-min Rain = 0
KQU1 171852Z 02003KT 10/M08 A3014 RMK A01 T01021075  RH  028%=      5-min Rain = 0
KQU1 171853Z 03002KT 10/M08 A3014 RMK A01 T01011080  RH  027%=      5-min Rain = 0
KQU1 171854Z 03001KT 10/M08 A3014 RMK A01 T01021076  RH  028%=      5-min Rain = 0
KQU1 171855Z 05002KT 10/M08 A3014 RMK A01 T01031078  RH  027%=      5-min Rain = 0
KQU1 171856Z 36002KT 10/M08 A3014 RMK A01 T01041078  RH  027%=      5-min Rain = 0
KQU1 171857Z 02003KT 10/M08 A3014 RMK A01 T01031079  RH  027%=      5-min Rain = 0
KQU1 171858Z 00003KT 10/M08 A3014 RMK A01 T01031077  RH  027%=      5-min Rain = 0
KQU1 171859Z 32002KT 10/M08 A3014 RMK A01 T01031077  RH  028%=      5-min Rain = 0
KQU1 171900Z 03002KT 10/M08 A3014 RMK A01 T01021078  RH  027%=      5-min Rain = 0
KQU1 171901Z 03004KT 10/M08 A3014 RMK A01 T01021079  RH  027%=      5-min Rain = 0
KQU1 171902Z 03004KT 10/M08 A3014 RMK A01 T01021078  RH  028%=      5-min Rain = 0
KQU1 171903Z 04004KT 10/M08 A3014 RMK A01 T01021075  RH  028%=      5-min Rain = 0
KQU1 171904Z 04005KT 10/M08 A3014 RMK A01 T01021076  RH  028%=      5-min Rain = 0
KQU1 171905Z 04005KT 10/M07 A3014 RMK A01 T01021074  RH  028%=      5-min Rain = 0
KQU1 171906Z 04007KT 10/M08 A3013 RMK A01 T01021077  RH  028%=      5-min Rain = 0
KQU1 171907Z 04005KT 10/M08 A3013 RMK A01 T01001078  RH  028%=      5-min Rain = 0
KQU1 171908Z 05002KT 10/M08 A3013 RMK A01 T01001077  RH  028%=      5-min Rain = 0
KQU1 171909Z 08002KT 10/M08 A3013 RMK A01 T01011075  RH  028%=      5-min Rain = 0
KQU1 171910Z 12002KT 10/M08 A3013 RMK A01 T01031077  RH  027%=      5-min Rain = 0
KQU1 171911Z 10003KT 10/M08 A3013 RMK A01 T01041077  RH  027%=      5-min Rain = 0
KQU1 171912Z 08003KT 11/M08 A3013 RMK A01 T01051077  RH  027%=      5-min Rain = 0
KQU1 171913Z 03004KT 11/M08 A3013 RMK A01 T01051078  RH  027%=      5-min Rain = 0
KQU1 171914Z 01005KT 10/M07 A3013 RMK A01 T01041074  RH  028%=      5-min Rain = 0
KQU1 171915Z 00005KT 10/M07 A3013 RMK A01 T01041072  RH  028%=      5-min Rain = 0
KQU1 171916Z 02005KT 10/M07 A3013 RMK A01 T01041074  RH  028%=      5-min Rain = 0
KQU1 171917Z 01004KT 10/M07 A3013 RMK A01 T01041074  RH  028%=      5-min Rain = 0
KQU1 171918Z 01004KT 10/M07 A3013 RMK A01 T01041072  RH  028%=      5-min Rain = 0
KQU1 171919Z 02004KT 11/M07 A3013 RMK A01 T01061068  RH  029%=      5-min Rain = 0
KQU1 171920Z 03005KT 11/M07 A3013 RMK A01 T01061073  RH  028%=      5-min Rain = 0
KQU1 171921Z 04008KT 11/M07 A3013 RMK A01 T01051074  RH  028%=      5-min Rain = 0
KQU1 171922Z 04007KT 10/M08 A3013 RMK A01 T01041077  RH  027%=      5-min Rain = 0
KQU1 171923Z 05006KT 10/M08 A3013 RMK A01 T01021077  RH  028%=      5-min Rain = 0
KQU1 171924Z 05005KT 10/M08 A3013 RMK A01 T01011076  RH  028%=      5-min Rain = 0
KQU1 171925Z 04007KT 10/M08 A3013 RMK A01 T01011075  RH  028%=      5-min Rain = 0
KQU1 171926Z 03006KT 10/M08 A3013 RMK A01 T01011076  RH  028%=      5-min Rain = 0
KQU1 171927Z 02007KT 10/M08 A3013 RMK A01 T01021075  RH  028%=      5-min Rain = 0
KQU1 171928Z 01005KT 10/M08 A3013 RMK A01 T01021075  RH  028%=      5-min Rain = 0
KQU1 171929Z 02004KT 10/M08 A3013 RMK A01 T01021077  RH  028%=      5-min Rain = 0
KQU1 171930Z 03003KT 10/M08 A3013 RMK A01 T01021076  RH  028%=      5-min Rain = 0
KQU1 171931Z 06002KT 10/M07 A3013 RMK A01 T01031074  RH  028%=      5-min Rain = 0
KQU1 171932Z 06001KT 11/M08 A3013 RMK A01 T01051076  RH  027%=      5-min Rain = 0
KQU1 171933Z 05004KT 11/M07 A3013 RMK A01 T01061072  RH  028%=      5-min Rain = 0
KQU1 171934Z 03006KT 11/M08 A3013 RMK A01 T01061075  RH  027%=      5-min Rain = 0
KQU1 171935Z 07004KT 10/M08 A3013 RMK A01 T01041075  RH  028%=      5-min Rain = 0
KQU1 171936Z 07004KT 10/M07 A3013 RMK A01 T01041074  RH  028%=      5-min Rain = 0
KQU1 171937Z 06003KT 10/M08 A3013 RMK A01 T01041077  RH  027%=      5-min Rain = 0
KQU1 171938Z 11001KT 10/M08 A3013 RMK A01 T01041076  RH  028%=      5-min Rain = 0
KQU1 171939Z 06004KT 11/M07 A3013 RMK A01 T01051074  RH  028%=      5-min Rain = 0
KQU1 171940Z 04003KT 11/M08 A3013 RMK A01 T01061075  RH  027%=      5-min Rain = 0
KQU1 171941Z 10002KT 11/M07 A3013 RMK A01 T01071072  RH  028%=      5-min Rain = 0
KQU1 171942Z 07003KT 11/M07 A3013 RMK A01 T01091070  RH  028%=      5-min Rain = 0
KQU1 171943Z 06005KT 11/M07 A3013 RMK A01 T01111070  RH  027%=      5-min Rain = 0
KQU1 171944Z 05005KT 11/M07 A3013 RMK A01 T01111072  RH  027%=      5-min Rain = 0
KQU1 171945Z 03007KT 11/M07 A3013 RMK A01 T01101071  RH  027%=      5-min Rain = 0
KQU1 171946Z 02007KT 11/M07 A3012 RMK A01 T01091072  RH  027%=      5-min Rain = 0
KQU1 171947Z 02005KT 11/M07 A3012 RMK A01 T01071071  RH  028%=      5-min Rain = 0
KQU1 171948Z 03002KT 11/M08 A3012 RMK A01 T01061075  RH  027%=      5-min Rain = 0
KQU1 171949Z 07004KT 11/M07 A3012 RMK A01 T01061074  RH  027%=      5-min Rain = 0
KQU1 171950Z 06006KT 11/M07 A3012 RMK A01 T01071071  RH  028%=      5-min Rain = 0
KQU1 171951Z 06006KT 11/M07 A3012 RMK A01 T01081072  RH  027%=      5-min Rain = 0
KQU1 171952Z 06006KT 11/M07 A3012 RMK A01 T01081071  RH  028%=      5-min Rain = 0
KQU1 171953Z 05007KT 11/M07 A3012 RMK A01 T01091072  RH  027%=      5-min Rain = 0
KQU1 171954Z 03007KT 11/M07 A3012 RMK A01 T01081073  RH  027%=      5-min Rain = 0
KQU1 171955Z 04005KT 11/M08 A3012 RMK A01 T01071075  RH  027%=      5-min Rain = 0
KQU1 171956Z 03004KT 11/M08 A3012 RMK A01 T01071075  RH  027%=      5-min Rain = 0
KQU1 171957Z 01005KT 11/M07 A3012 RMK A01 T01071071  RH  028%=      5-min Rain = 0
KQU1 171958Z 34008KT 11/M07 A3012 RMK A01 T01071072  RH  028%=      5-min Rain = 0
KQU1 171959Z 36006KT 11/M07 A3012 RMK A01 T01081072  RH  028%=      5-min Rain = 0
KQU1 172000Z 36006KT 11/M07 A3012 RMK A01 T01081073  RH  027%=      5-min Rain = 0
KQU1 172001Z 35005KT 11/M07 A3012 RMK A01 T01081074  RH  027%=      5-min Rain = 0
KQU1 172002Z 02006KT 11/M07 A3012 RMK A01 T01081074  RH  027%=      5-min Rain = 0
KQU1 172003Z 02006KT 11/M07 A3012 RMK A01 T01081074  RH  027%=      5-min Rain = 0
KQU1 172004Z 02002KT 11/M07 A3011 RMK A01 T01081073  RH  027%=      5-min Rain = 0
KQU1 172005Z 01003KT 11/M07 A3011 RMK A01 T01091069  RH  028%=      5-min Rain = 0
KQU1 172006Z 35003KT 11/M07 A3011 RMK A01 T01101067  RH  028%=      5-min Rain = 0
KQU1 172007Z 35007KT 11/M07 A3011 RMK A01 T01111071  RH  027%=      5-min Rain = 0
KQU1 172008Z 02006KT 11/M08 A3011 RMK A01 T01091077  RH  026%=      5-min Rain = 0
KQU1 172009Z 03004KT 11/M08 A3011 RMK A01 T01091076  RH  027%=      5-min Rain = 0
KQU1 172010Z 02005KT 11/M07 A3011 RMK A01 T01101074  RH  027%=      5-min Rain = 0
KQU1 172011Z 34008KT 11/M08 A3011 RMK A01 T01101075  RH  027%=      5-min Rain = 0
KQU1 172012Z 31006KT 11/M08 A3011 RMK A01 T01101078  RH  026%=      5-min Rain = 0
KQU1 172013Z 31003KT 11/M08 A3011 RMK A01 T01101079  RH  026%=      5-min Rain = 0
KQU1 172014Z 29004KT 11/M08 A3011 RMK A01 T01101079  RH  026%=      5-min Rain = 0
KQU1 172015Z 26002KT 11/M08 A3011 RMK A01 T01101078  RH  026%=      5-min Rain = 0
KQU1 172016Z 22002KT 11/M08 A3011 RMK A01 T01111079  RH  026%=      5-min Rain = 0
KQU1 172017Z 20002KT 11/M08 A3011 RMK A01 T01111079  RH  026%=      5-min Rain = 0
KQU1 172018Z 17002KT 11/M08 A3011 RMK A01 T01111079  RH  026%=      5-min Rain = 0
KQU1 172019Z 01001KT 11/M08 A3011 RMK A01 T01111076  RH  026%=      5-min Rain = 0
KQU1 172020Z 36002KT 11/M07 A3011 RMK A01 T01121074  RH  027%=      5-min Rain = 0
KQU1 172021Z 34003KT 11/M07 A3011 RMK A01 T01131073  RH  026%=      5-min Rain = 0
KQU1 172022Z 34004KT 11/M07 A3011 RMK A01 T01141071  RH  027%=      5-min Rain = 0
KQU1 172023Z 36008KT 11/M07 A3011 RMK A01 T01121073  RH  027%=      5-min Rain = 0
KQU1 172024Z 35008KT 11/M08 A3011 RMK A01 T01111075  RH  026%=      5-min Rain = 0
KQU1 172025Z 36004KT 11/M08 A3011 RMK A01 T01091079  RH  026%=      5-min Rain = 0
KQU1 172026Z 02003KT 11/M08 A3011 RMK A01 T01091077  RH  026%=      5-min Rain = 0
KQU1 172027Z 04005KT 11/M08 A3011 RMK A01 T01101075  RH  027%=      5-min Rain = 0
KQU1 172028Z 03005KT 11/M08 A3011 RMK A01 T01101078  RH  026%=      5-min Rain = 0
KQU1 172029Z 03005KT 11/M08 A3011 RMK A01 T01101077  RH  026%=      5-min Rain = 0
KQU1 172030Z 01005KT 11/M08 A3011 RMK A01 T01101078  RH  026%=      5-min Rain = 0
KQU1 172031Z 00005KT 11/M07 A3011 RMK A01 T01101073  RH  027%=      5-min Rain = 0
KQU1 172032Z 33008KT 11/M07 A3011 RMK A01 T01101073  RH  027%=      5-min Rain = 0
KQU1 172033Z 32008KT 11/M07 A3011 RMK A01 T01121071  RH  027%=      5-min Rain = 0
KQU1 172034Z 31009KT 11/M08 A3011 RMK A01 T01131076  RH  026%=      5-min Rain = 0
KQU1 172035Z 32007KT 11/M08 A3011 RMK A01 T01111076  RH  026%=      5-min Rain = 0
KQU1 172036Z 31007KT 11/M08 A3011 RMK A01 T01111076  RH  026%=      5-min Rain = 0
KQU1 172037Z 29005KT 11/M08 A3011 RMK A01 T01111076  RH  026%=      5-min Rain = 0
KQU1 172038Z 32005KT 11/M07 A3011 RMK A01 T01131072  RH  027%=      5-min Rain = 0
KQU1 172039Z 31006KT 11/M08 A3011 RMK A01 T01131076  RH  026%=      5-min Rain = 0
KQU1 172040Z 32004KT 11/M08 A3011 RMK A01 T01131075  RH  026%=      5-min Rain = 0
KQU1 172041Z 31004KT 11/M07 A301 RMK A01 T01141074  RH  026%=      5-min Rain = 0
KQU1 172042Z 34002KT 11/M08 A301 RMK A01 T01131077  RH  026%=      5-min Rain = 0
KQU1 172043Z 31002KT 11/M08 A301 RMK A01 T01141075  RH  026%=      5-min Rain = 0
KQU1 172044Z 31003KT 11/M07 A301 RMK A01 T01141074  RH  026%=      5-min Rain = 0
KQU1 172045Z 31002KT 12/M07 A301 RMK A01 T01151074  RH  026%=      5-min Rain = 0
KQU1 172046Z 33000KT 12/M08 A301 RMK A01 T01161075  RH  026%=      5-min Rain = 0
KQU1 172047Z 06001KT 12/M08 A301 RMK A01 T01171075  RH  025%=      5-min Rain = 0
KQU1 172048Z 01002KT 12/M07 A301 RMK A01 T01181073  RH  026%=      5-min Rain = 0
KQU1 172049Z 36005KT 12/M07 A3011 RMK A01 T01161072  RH  026%=      5-min Rain = 0
KQU1 172050Z 35006KT 12/M07 A301 RMK A01 T01151072  RH  026%=      5-min Rain = 0
KQU1 172051Z 35006KT 11/M07 A3011 RMK A01 T01131074  RH  026%=      5-min Rain = 0
KQU1 172052Z 33005KT 11/M07 A3011 RMK A01 T01121073  RH  027%=      5-min Rain = 0
KQU1 172053Z 32006KT 11/M07 A3011 RMK A01 T01131073  RH  026%=      5-min Rain = 0
KQU1 172054Z 30006KT 11/M08 A3011 RMK A01 T01131075  RH  026%=      5-min Rain = 0
KQU1 172055Z 30005KT 11/M07 A3011 RMK A01 T01131073  RH  026%=      5-min Rain = 0
KQU1 172056Z 29004KT 11/M08 A3011 RMK A01 T01131076  RH  026%=      5-min Rain = 0
KQU1 172057Z 31003KT 11/M08 A3011 RMK A01 T01131075  RH  026%=      5-min Rain = 0
KQU1 172058Z 35002KT 11/M08 A3011 RMK A01 T01131075  RH  026%=      5-min Rain = 0
KQU1 172059Z 00003KT 11/M07 A3011 RMK A01 T01141073  RH  026%=      5-min Rain = 0
KQU1 172100Z 03004KT 11/M07 A3011 RMK A01 T01141074  RH  026%=      5-min Rain = 0
KQU1 172101Z 03003KT 11/M07 A3011 RMK A01 T01141074  RH  026%=      5-min Rain = 0
KQU1 172102Z 02004KT 11/M07 A3011 RMK A01 T01141073  RH  026%=      5-min Rain = 0
KQU1 172103Z 03002KT 11/M07 A301 RMK A01 T01141074  RH  026%=      5-min Rain = 0
KQU1 172104Z 02000KT 11/M08 A301 RMK A01 T01141076  RH  026%=      5-min Rain = 0
KQU1 172105Z 02002KT 12/M08 A301 RMK A01 T01151075  RH  026%=      5-min Rain = 0
KQU1 172106Z 00001KT 11/M08 A3011 RMK A01 T01141077  RH  025%=      5-min Rain = 0
KQU1 172107Z 33003KT 11/M08 A3011 RMK A01 T01131076  RH  026%=      5-min Rain = 0
KQU1 172108Z 27001KT 11/M08 A3011 RMK A01 T01121076  RH  026%=      5-min Rain = 0
KQU1 172109Z 28001KT 11/M07 A3011 RMK A01 T01141074  RH  026%=      5-min Rain = 0
KQU1 172110Z 01001KT 11/M08 A3011 RMK A01 T01141077  RH  025%=      5-min Rain = 0
KQU1 172111Z 03003KT 11/M08 A301 RMK A01 T01141077  RH  025%=      5-min Rain = 0
KQU1 172112Z 03003KT 12/M07 A301 RMK A01 T01151074  RH  026%=      5-min Rain = 0
KQU1 172113Z 03002KT 12/M08 A3011 RMK A01 T01151076  RH  025%=      5-min Rain = 0
KQU1 172114Z 17000KT 12/M07 A3011 RMK A01 T01151074  RH  026%=      5-min Rain = 0
KQU1 172115Z 04001KT 12/M07 A3011 RMK A01 T01171074  RH  026%=      5-min Rain = 0
KQU1 172116Z 06001KT 12/M07 A3011 RMK A01 T01201072  RH  026%=      5-min Rain = 0
KQU1 172117Z 02001KT 12/M07 A3011 RMK A01 T01211071  RH  025%=      5-min Rain = 0
KQU1 172118Z 04002KT 12/M07 A3011 RMK A01 T01211074  RH  025%=      5-min Rain = 0
KQU1 172119Z 00001KT 12/M08 A3011 RMK A01 T01201076  RH  025%=      5-min Rain = 0
KQU1 172120Z 31002KT 12/M08 A3011 RMK A01 T01191076  RH  025%=      5-min Rain = 0
KQU1 172121Z 32002KT 12/M07 A3011 RMK A01 T01201073  RH  025%=      5-min Rain = 0
KQU1 172122Z 02003KT 12/M07 A3011 RMK A01 T01201073  RH  025%=      5-min Rain = 0
KQU1 172123Z 04001KT 12/M07 A3011 RMK A01 T01201073  RH  025%=      5-min Rain = 0
KQU1 172124Z 35002KT 12/M07 A3011 RMK A01 T01201072  RH  026%=      5-min Rain = 0
KQU1 172125Z 35004KT 12/M07 A3011 RMK A01 T01191070  RH  026%=      5-min Rain = 0
KQU1 172126Z 34003KT 12/M07 A301 RMK A01 T01181071  RH  026%=      5-min Rain = 0
KQU1 172127Z 32003KT 12/M07 A301 RMK A01 T01171074  RH  025%=      5-min Rain = 0
KQU1 172128Z 29004KT 12/M07 A301 RMK A01 T01171072  RH  026%=      5-min Rain = 0
KQU1 172129Z 28006KT 12/M07 A301 RMK A01 T01181073  RH  026%=      5-min Rain = 0
KQU1 172130Z 31007KT 12/M07 A301 RMK A01 T01191071  RH  026%=      5-min Rain = 0
KQU1 172131Z 29007KT 12/M07 A301 RMK A01 T01181071  RH  026%=      5-min Rain = 0
KQU1 172132Z 29005KT 12/M07 A301 RMK A01 T01181072  RH  026%=      5-min Rain = 0
KQU1 172133Z 30005KT 12/M08 A301 RMK A01 T01171075  RH  025%=      5-min Rain = 0
KQU1 172134Z 32004KT 12/M07 A301 RMK A01 T01171074  RH  026%=      5-min Rain = 0
KQU1 172135Z 32004KT 12/M08 A301 RMK A01 T01161075  RH  026%=      5-min Rain = 0
KQU1 172136Z 34002KT 12/M08 A301 RMK A01 T01161076  RH  025%=      5-min Rain = 0
KQU1 172137Z 34002KT 12/M07 A301 RMK A01 T01161074  RH  026%=      5-min Rain = 0
KQU1 172138Z 34002KT 12/M08 A301 RMK A01 T01161075  RH  025%=      5-min Rain = 0
KQU1 172139Z 35001KT 12/M07 A301 RMK A01 T01161074  RH  026%=      5-min Rain = 0
KQU1 172140Z 09001KT 12/M07 A3009 RMK A01 T01181070  RH  026%=      5-min Rain = 0
KQU1 172141Z 22002KT 12/M08 A3009 RMK A01 T01191075  RH  025%=      5-min Rain = 0
KQU1 172142Z 16001KT 12/M07 A3009 RMK A01 T01201074  RH  025%=      5-min Rain = 0
KQU1 172143Z 13000KT 12/M07 A3009 RMK A01 T01211074  RH  025%=      5-min Rain = 0
KQU1 172144Z 10001KT 12/M07 A3009 RMK A01 T01231072  RH  025%=      5-min Rain = 0
KQU1 172145Z 14002KT 13/M07 A3009 RMK A01 T01251071  RH  025%=      5-min Rain = 0
KQU1 172146Z 14002KT 13/M07 A3009 RMK A01 T01271073  RH  024%=      5-min Rain = 0
KQU1 172147Z 11002KT 13/M07 A3009 RMK A01 T01281072  RH  024%=      5-min Rain = 0
KQU1 172148Z 05003KT 13/M08 A3009 RMK A01 T01281075  RH  024%=      5-min Rain = 0
KQU1 172149Z 06002KT 13/M07 A3009 RMK A01 T01251074  RH  024%=      5-min Rain = 0
KQU1 172150Z 04003KT 12/M07 A3009 RMK A01 T01231071  RH  025%=      5-min Rain = 0
KQU1 172151Z 01004KT 12/M08 A3009 RMK A01 T01211076  RH  025%=      5-min Rain = 0
KQU1 172152Z 01002KT 12/M08 A3009 RMK A01 T01181075  RH  025%=      5-min Rain = 0
KQU1 172153Z 00003KT 12/M08 A3009 RMK A01 T01171075  RH  025%=      5-min Rain = 0
KQU1 172154Z 32005KT 12/M07 A3009 RMK A01 T01171073  RH  026%=      5-min Rain = 0
KQU1 172155Z 33004KT 12/M07 A3009 RMK A01 T01161074  RH  026%=      5-min Rain = 0
KQU1 172156Z 30004KT 12/M07 A3009 RMK A01 T01161073  RH  026%=      5-min Rain = 0
KQU1 172157Z 30005KT 12/M07 A3009 RMK A01 T01161072  RH  026%=      5-min Rain = 0
KQU1 172158Z 32004KT 12/M07 A3009 RMK A01 T01171072  RH  026%=      5-min Rain = 0
KQU1 172159Z 29004KT 12/M07 A3009 RMK A01 T01171072  RH  026%=      5-min Rain = 0
KQU1 172200Z 25006KT 12/M07 A3009 RMK A01 T01181073  RH  026%=      5-min Rain = 0
KQU1 172201Z 26009KT 12/M07 A3009 RMK A01 T01191073  RH  025%=      5-min Rain = 0
KQU1 172202Z 28009KT 12/M07 A3009 RMK A01 T01181073  RH  026%=      5-min Rain = 0
KQU1 172203Z 28008KT 12/M07 A3009 RMK A01 T01171074  RH  026%=      5-min Rain = 0
KQU1 172204Z 28007KT 12/M07 A3009 RMK A01 T01161073  RH  026%=      5-min Rain = 0
KQU1 172205Z 29006KT 12/M07 A3009 RMK A01 T01161073  RH  026%=      5-min Rain = 0
KQU1 172206Z 29005KT 12/M07 A3009 RMK A01 T01161074  RH  026%=      5-min Rain = 0
KQU1 172207Z 29005KT 12/M08 A3009 RMK A01 T01161075  RH  026%=      5-min Rain = 0
KQU1 172208Z 28003KT 12/M07 A3009 RMK A01 T01161074  RH  026%=      5-min Rain = 0
KQU1 172209Z 32002KT 12/M08 A3009 RMK A01 T01171075  RH  026%=      5-min Rain = 0
KQU1 172210Z 02001KT 12/M08 A3009 RMK A01 T01181076  RH  025%=      5-min Rain = 0
KQU1 172211Z 23001KT 12/M08 A3009 RMK A01 T01181075  RH  025%=      5-min Rain = 0
KQU1 172212Z 33001KT 12/M07 A3009 RMK A01 T01181074  RH  025%=      5-min Rain = 0
KQU1 172213Z 29002KT 12/M08 A3009 RMK A01 T01181075  RH  025%=      5-min Rain = 0
KQU1 172214Z 30004KT 12/M07 A3009 RMK A01 T01181073  RH  025%=      5-min Rain = 0
KQU1 172215Z 28003KT 12/M07 A3009 RMK A01 T01191073  RH  025%=      5-min Rain = 0
KQU1 172216Z 28007KT 12/M07 A3009 RMK A01 T01191074  RH  025%=      5-min Rain = 0
KQU1 172217Z 28006KT 12/M07 A3009 RMK A01 T01191072  RH  026%=      5-min Rain = 0
KQU1 172218Z 28009KT 12/M07 A3009 RMK A01 T01201071  RH  026%=      5-min Rain = 0
KQU1 172219Z 28008KT 12/M07 A3009 RMK A01 T01181074  RH  025%=      5-min Rain = 0
KQU1 172220Z 27006KT 12/M08 A3009 RMK A01 T01161075  RH  025%=      5-min Rain = 0
KQU1 172221Z 28006KT 12/M07 A3009 RMK A01 T01161073  RH  026%=      5-min Rain = 0
KQU1 172222Z 29007KT 12/M07 A3008 RMK A01 T01161074  RH  026%=      5-min Rain = 0
KQU1 172223Z 28006KT 12/M07 A3008 RMK A01 T01151074  RH  026%=      5-min Rain = 0
KQU1 172224Z 29004KT 12/M08 A3008 RMK A01 T01151075  RH  026%=      5-min Rain = 0
KQU1 172225Z 29005KT 12/M07 A3008 RMK A01 T01151072  RH  026%=      5-min Rain = 0
KQU1 172226Z 29004KT 12/M07 A3008 RMK A01 T01151073  RH  026%=      5-min Rain = 0
KQU1 172227Z 31005KT 12/M08 A3008 RMK A01 T01151075  RH  026%=      5-min Rain = 0
KQU1 172228Z 32004KT 11/M08 A3008 RMK A01 T01141076  RH  026%=      5-min Rain = 0
KQU1 172229Z 31004KT 11/M08 A3008 RMK A01 T01131075  RH  026%=      5-min Rain = 0
KQU1 172230Z 30006KT 11/M07 A3008 RMK A01 T01131074  RH  026%=      5-min Rain = 0
KQU1 172231Z 30005KT 11/M07 A3008 RMK A01 T01131072  RH  027%=      5-min Rain = 0
KQU1 172232Z 29003KT 11/M07 A3008 RMK A01 T01131072  RH  027%=      5-min Rain = 0
KQU1 172233Z 31005KT 11/M07 A3008 RMK A01 T01141072  RH  026%=      5-min Rain = 0
KQU1 172234Z 30005KT 11/M07 A3008 RMK A01 T01141071  RH  027%=      5-min Rain = 0
KQU1 172235Z 30005KT 11/M07 A3008 RMK A01 T01141071  RH  027%=      5-min Rain = 0
KQU1 172236Z 30005KT 11/M07 A3008 RMK A01 T01141071  RH  027%=      5-min Rain = 0
KQU1 172237Z 29004KT 11/M07 A3008 RMK A01 T01141072  RH  027%=      5-min Rain = 0
KQU1 172238Z 27004KT 12/M07 A3008 RMK A01 T01151071  RH  027%=      5-min Rain = 0
KQU1 172239Z 25006KT 12/M07 A3008 RMK A01 T01151073  RH  026%=      5-min Rain = 0
KQU1 172240Z 24006KT 12/M08 A3008 RMK A01 T01151075  RH  026%=      5-min Rain = 0
KQU1 172241Z 23005KT 12/M08 A3008 RMK A01 T01151075  RH  026%=      5-min Rain = 0
KQU1 172242Z 21004KT 12/M08 A3008 RMK A01 T01151075  RH  026%=      5-min Rain = 0
KQU1 172243Z 22005KT 12/M07 A3008 RMK A01 T01151074  RH  026%=      5-min Rain = 0
KQU1 172244Z 26004KT 12/M07 A3008 RMK A01 T01151074  RH  026%=      5-min Rain = 0
KQU1 172245Z 28004KT 11/M07 A3008 RMK A01 T01141074  RH  026%=      5-min Rain = 0
KQU1 172246Z 28003KT 11/M07 A3008 RMK A01 T01141074  RH  026%=      5-min Rain = 0
KQU1 172247Z 25004KT 11/M07 A3008 RMK A01 T01141072  RH  026%=      5-min Rain = 0
KQU1 172248Z 26005KT 12/M07 A3008 RMK A01 T01151074  RH  026%=      5-min Rain = 0
KQU1 172249Z 25007KT 12/M08 A3008 RMK A01 T01151075  RH  026%=      5-min Rain = 0
KQU1 172250Z 24004KT 11/M08 A3008 RMK A01 T01141076  RH  026%=      5-min Rain = 0
KQU1 172251Z 25003KT 12/M07 A3008 RMK A01 T01151074  RH  026%=      5-min Rain = 0
KQU1 172252Z 24004KT 12/M08 A3008 RMK A01 T01151075  RH  026%=      5-min Rain = 0
KQU1 172253Z 26005KT 12/M07 A3008 RMK A01 T01151073  RH  026%=      5-min Rain = 0
KQU1 172254Z 26005KT 12/M07 A3008 RMK A01 T01151074  RH  026%=      5-min Rain = 0
KQU1 172255Z 25005KT 12/M07 A3008 RMK A01 T01151073  RH  026%=      5-min Rain = 0
KQU1 172256Z 25004KT 12/M08 A3008 RMK A01 T01151076  RH  026%=      5-min Rain = 0
KQU1 172257Z 25003KT 11/M08 A3008 RMK A01 T01141076  RH  026%=      5-min Rain = 0
KQU1 172258Z 28003KT 12/M07 A3008 RMK A01 T01151074  RH  026%=      5-min Rain = 0
KQU1 172259Z 30004KT 12/M07 A3008 RMK A01 T01151073  RH  026%=      5-min Rain = 0
KQU1 172300Z 30004KT 11/M07 A3008 RMK A01 T01141074  RH  026%=      5-min Rain = 0
KQU1 172301Z 29004KT 11/M07 A3008 RMK A01 T01141073  RH  026%=      5-min Rain = 0
KQU1 172302Z 28003KT 11/M07 A3008 RMK A01 T01141073  RH  026%=      5-min Rain = 0
KQU1 172303Z 27003KT 11/M07 A3008 RMK A01 T01141072  RH  026%=      5-min Rain = 0
KQU1 172304Z 27003KT 11/M08 A3008 RMK A01 T01141076  RH  026%=      5-min Rain = 0
KQU1 172305Z 27003KT 11/M07 A3007 RMK A01 T01141074  RH  026%=      5-min Rain = 0
KQU1 172306Z 26003KT 11/M07 A3007 RMK A01 T01141074  RH  026%=      5-min Rain = 0
KQU1 172307Z 27004KT 11/M07 A3007 RMK A01 T01141073  RH  026%=      5-min Rain = 0
KQU1 172308Z 26005KT 11/M07 A3007 RMK A01 T01141074  RH  026%=      5-min Rain = 0
KQU1 172309Z 26006KT 11/M07 A3007 RMK A01 T01131073  RH  026%=      5-min Rain = 0
KQU1 172310Z 26005KT 11/M07 A3007 RMK A01 T01121074  RH  026%=      5-min Rain = 0
KQU1 172311Z 26005KT 11/M07 A3007 RMK A01 T01121072  RH  027%=      5-min Rain = 0
KQU1 172312Z 26004KT 11/M07 A3007 RMK A01 T01121071  RH  027%=      5-min Rain = 0
KQU1 172313Z 26003KT 11/M07 A3007 RMK A01 T01111071  RH  027%=      5-min Rain = 0
KQU1 172314Z 27004KT 11/M07 A3007 RMK A01 T01111073  RH  027%=      5-min Rain = 0
KQU1 172315Z 27004KT 11/M07 A3007 RMK A01 T01111073  RH  027%=      5-min Rain = 0
KQU1 172316Z 27004KT 11/M07 A3007 RMK A01 T01111073  RH  027%=      5-min Rain = 0
KQU1 172317Z 27003KT 11/M07 A3007 RMK A01 T01101072  RH  027%=      5-min Rain = 0
KQU1 172318Z 27003KT 11/M07 A3007 RMK A01 T01101073  RH  027%=      5-min Rain = 0
KQU1 172319Z 26003KT 11/M07 A3007 RMK A01 T01101072  RH  027%=      5-min Rain = 0
KQU1 172320Z 27003KT 11/M07 A3007 RMK A01 T01101072  RH  027%=      5-min Rain = 0
KQU1 172321Z 26004KT 11/M07 A3007 RMK A01 T01091072  RH  027%=      5-min Rain = 0
KQU1 172322Z 25003KT 11/M07 A3007 RMK A01 T01081072  RH  028%=      5-min Rain = 0
KQU1 172323Z 25004KT 11/M07 A3007 RMK A01 T01081074  RH  027%=      5-min Rain = 0
KQU1 172324Z 24003KT 11/M07 A3007 RMK A01 T01081073  RH  027%=      5-min Rain = 0
KQU1 172325Z 24003KT 11/M07 A3007 RMK A01 T01071072  RH  028%=      5-min Rain = 0
KQU1 172326Z 23004KT 11/M07 A3007 RMK A01 T01071073  RH  028%=      5-min Rain = 0
KQU1 172327Z 24004KT 11/M07 A3007 RMK A01 T01071072  RH  028%=      5-min Rain = 0
KQU1 172328Z 24004KT 11/M07 A3007 RMK A01 T01061072  RH  028%=      5-min Rain = 0
KQU1 172329Z 24004KT 11/M07 A3007 RMK A01 T01051072  RH  028%=      5-min Rain = 0
KQU1 172330Z 25003KT 10/M07 A3007 RMK A01 T01041072  RH  028%=      5-min Rain = 0
KQU1 172331Z 24003KT 10/M07 A3007 RMK A01 T01041072  RH  028%=      5-min Rain = 0
KQU1 172332Z 23004KT 10/M07 A3007 RMK A01 T01041073  RH  028%=      5-min Rain = 0
KQU1 172333Z 22004KT 10/M07 A3007 RMK A01 T01041073  RH  028%=      5-min Rain = 0
KQU1 172334Z 24003KT 10/M07 A3007 RMK A01 T01041071  RH  029%=      5-min Rain = 0
KQU1 172335Z 24004KT 10/M07 A3007 RMK A01 T01031071  RH  029%=      5-min Rain = 0
KQU1 172336Z 24003KT 10/M07 A3007 RMK A01 T01031071  RH  029%=      5-min Rain = 0
KQU1 172337Z 24003KT 10/M07 A3007 RMK A01 T01021072  RH  029%=      5-min Rain = 0
KQU1 172338Z 24003KT 10/M07 A3007 RMK A01 T01021071  RH  029%=      5-min Rain = 0
KQU1 172339Z 24004KT 10/M07 A3007 RMK A01 T01011072  RH  029%=      5-min Rain = 0
KQU1 172340Z 24004KT 10/M07 A3007 RMK A01 T01001073  RH  029%=      5-min Rain = 0
KQU1 172341Z 24005KT 10/M07 A3007 RMK A01 T00991071  RH  029%=      5-min Rain = 0
KQU1 172342Z 24005KT 10/M07 A3007 RMK A01 T00981071  RH  030%=      5-min Rain = 0
KQU1 172343Z 24005KT 10/M07 A3007 RMK A01 T00971071  RH  030%=      5-min Rain = 0
KQU1 172344Z 25005KT 10/M07 A3007 RMK A01 T00951071  RH  030%=      5-min Rain = 0
KQU1 172345Z 25005KT 09/M07 A3007 RMK A01 T00941071  RH  031%=      5-min Rain = 0
KQU1 172346Z 25005KT 09/M07 A3007 RMK A01 T00921072  RH  031%=      5-min Rain = 0
KQU1 172347Z 24005KT 09/M07 A3007 RMK A01 T00911071  RH  031%=      5-min Rain = 0
KQU1 172348Z 24005KT 09/M07 A3007 RMK A01 T00891072  RH  031%=      5-min Rain = 0
KQU1 172349Z 24005KT 09/M07 A3007 RMK A01 T00881072  RH  032%=      5-min Rain = 0
KQU1 172350Z 24005KT 09/M07 A3007 RMK A01 T00871072  RH  032%=      5-min Rain = 0
KQU1 172351Z 24005KT 09/M07 A3007 RMK A01 T00861073  RH  032%=      5-min Rain = 0
KQU1 172352Z 24005KT 09/M07 A3007 RMK A01 T00851073  RH  032%=      5-min Rain = 0
KQU1 172353Z 24005KT 09/M07 A3007 RMK A01 T00851074  RH  032%=      5-min Rain = 0
KQU1 172354Z 23005KT 08/M07 A3007 RMK A01 T00841074  RH  032%=      5-min Rain = 0
KQU1 172355Z 23005KT 08/M07 A3007 RMK A01 T00841074  RH  032%=      5-min Rain = 0
KQU1 172356Z 23005KT 08/M07 A3007 RMK A01 T00831074  RH  032%=      5-min Rain = 0
KQU1 172357Z 23005KT 08/M07 A3007 RMK A01 T00821073  RH  032%=      5-min Rain = 0
KQU1 172358Z 23005KT 08/M07 A3007 RMK A01 T00811073  RH  033%=      5-min Rain = 0
KQU1 172359Z 23005KT 08/M07 A3007 RMK A01 T00791072  RH  033%=      5-min Rain = 0
KQU1 180000Z 23005KT 08/M07 A3007 RMK A01 T00781072  RH  034%=      5-min Rain = 0
KQU1 180001Z 23005KT 08/M07 A3007 RMK A01 T00761072  RH  034%=      5-min Rain = 0
KQU1 180002Z 23005KT 08/M07 A3007 RMK A01 T00751072  RH  034%=      5-min Rain = 0
KQU1 180003Z 23005KT 07/M07 A3007 RMK A01 T00741072  RH  034%=      5-min Rain = 0
KQU1 180004Z 23005KT 07/M07 A3007 RMK A01 T00741073  RH  034%=      5-min Rain = 0
KQU1 180005Z 23005KT 07/M07 A3007 RMK A01 T00741073  RH  034%=      5-min Rain = 0
KQU1 180006Z 24005KT 07/M07 A3007 RMK A01 T00731072  RH  035%=      5-min Rain = 0
KQU1 180007Z 24005KT 07/M07 A3007 RMK A01 T00721072  RH  035%=      5-min Rain = 0
KQU1 180008Z 24005KT 07/M07 A3007 RMK A01 T00711071  RH  036%=      5-min Rain = 0
KQU1 180009Z 24006KT 07/M07 A3007 RMK A01 T00691070  RH  036%=      5-min Rain = 0
KQU1 180010Z 24006KT 07/M07 A3007 RMK A01 T00661069  RH  037%=      5-min Rain = 0
KQU1 180011Z 24006KT 06/M07 A3007 RMK A01 T00641069  RH  038%=      5-min Rain = 0
KQU1 180012Z 24006KT 06/M07 A3007 RMK A01 T00631069  RH  038%=      5-min Rain = 0
KQU1 180013Z 24006KT 06/M07 A3007 RMK A01 T00621070  RH  038%=      5-min Rain = 0
KQU1 180014Z 24006KT 06/M07 A3007 RMK A01 T00611070  RH  039%=      5-min Rain = 0
KQU1 180015Z 25006KT 06/M07 A3007 RMK A01 T00601069  RH  039%=      5-min Rain = 0
KQU1 180016Z 25006KT 06/M07 A3007 RMK A01 T00601067  RH  039%=      5-min Rain = 0
KQU1 180017Z 25006KT 06/M07 A3007 RMK A01 T00601067  RH  040%=      5-min Rain = 0
KQU1 180018Z 26005KT 06/M07 A3007 RMK A01 T00601066  RH  040%=      5-min Rain = 0
KQU1 180019Z 26005KT 06/M07 A3007 RMK A01 T00591066  RH  040%=      5-min Rain = 0
KQU1 180020Z 26005KT 06/M07 A3007 RMK A01 T00591066  RH  040%=      5-min Rain = 0
KQU1 180021Z 26005KT 06/M07 A3007 RMK A01 T00571066  RH  041%=      5-min Rain = 0
KQU1 180022Z 26005KT 06/M07 A3007 RMK A01 T00571066  RH  041%=      5-min Rain = 0
KQU1 180023Z 25005KT 06/M07 A3007 RMK A01 T00551066  RH  041%=      5-min Rain = 0
KQU1 180024Z 25006KT 05/M07 A3008 RMK A01 T00541066  RH  042%=      5-min Rain = 0
KQU1 180025Z 25006KT 05/M07 A3008 RMK A01 T00521066  RH  042%=      5-min Rain = 0
KQU1 180026Z 24006KT 05/M07 A3008 RMK A01 T00511065  RH  043%=      5-min Rain = 0
KQU1 180027Z 24006KT 05/M06 A3008 RMK A01 T00501064  RH  044%=      5-min Rain = 0
KQU1 180028Z 25005KT 05/M06 A3008 RMK A01 T00491063  RH  044%=      5-min Rain = 0
KQU1 180029Z 25005KT 05/M06 A3008 RMK A01 T00471063  RH  045%=      5-min Rain = 0
KQU1 180030Z 24005KT 05/M06 A3008 RMK A01 T00461063  RH  045%=      5-min Rain = 0
KQU1 180031Z 24004KT 05/M06 A3008 RMK A01 T00451064  RH  045%=      5-min Rain = 0
KQU1 180032Z 23005KT 05/M07 A3008 RMK A01 T00451066  RH  044%=      5-min Rain = 0
KQU1 180033Z 23006KT 05/M07 A3008 RMK A01 T00451066  RH  044%=      5-min Rain = 0
KQU1 180034Z 23006KT 05/M07 A3008 RMK A01 T00451066  RH  044%=      5-min Rain = 0
KQU1 180035Z 23006KT 05/M07 A3008 RMK A01 T00451068  RH  044%=      5-min Rain = 0
KQU1 180036Z 23006KT 05/M07 A3008 RMK A01 T00461067  RH  044%=      5-min Rain = 0
KQU1 180037Z 24006KT 05/M07 A3008 RMK A01 T00461067  RH  044%=      5-min Rain = 0
KQU1 180038Z 24006KT 05/M07 A3008 RMK A01 T00461067  RH  044%=      5-min Rain = 0
KQU1 180039Z 24005KT 05/M07 A3008 RMK A01 T00461066  RH  044%=      5-min Rain = 0
KQU1 180040Z 24005KT 05/M06 A3008 RMK A01 T00461064  RH  045%=      5-min Rain = 0
KQU1 180041Z 24005KT 05/M06 A3008 RMK A01 T00451064  RH  045%=      5-min Rain = 0
KQU1 180042Z 24005KT 04/M06 A3008 RMK A01 T00441064  RH  045%=      5-min Rain = 0
KQU1 180043Z 24005KT 04/M06 A3008 RMK A01 T00441064  RH  045%=      5-min Rain = 0
KQU1 180044Z 24005KT 04/M06 A3007 RMK A01 T00441063  RH  046%=      5-min Rain = 0
KQU1 180045Z 24005KT 04/M06 A3007 RMK A01 T00441062  RH  046%=      5-min Rain = 0
KQU1 180046Z 24005KT 04/M06 A3008 RMK A01 T00441062  RH  046%=      5-min Rain = 0
KQU1 180047Z 24005KT 04/M06 A3008 RMK A01 T00431062  RH  046%=      5-min Rain = 0
KQU1 180048Z 24005KT 04/M06 A3008 RMK A01 T00431062  RH  046%=      5-min Rain = 0
KQU1 180049Z 24005KT 04/M06 A3008 RMK A01 T00431062  RH  046%=      5-min Rain = 0
KQU1 180050Z 24006KT 04/M06 A3008 RMK A01 T00431062  RH  046%=      5-min Rain = 0
KQU1 180051Z 24006KT 04/M06 A3008 RMK A01 T00431062  RH  046%=      5-min Rain = 0
KQU1 180052Z 24006KT 04/M06 A3008 RMK A01 T00431062  RH  046%=      5-min Rain = 0
KQU1 180053Z 24005KT 04/M06 A3008 RMK A01 T00431063  RH  046%=      5-min Rain = 0
KQU1 180054Z 24005KT 04/M06 A3008 RMK A01 T00431063  RH  046%=      5-min Rain = 0
KQU1 180055Z 25005KT 04/M06 A3008 RMK A01 T00431063  RH  046%=      5-min Rain = 0
KQU1 180056Z 25005KT 04/M06 A3008 RMK A01 T00421063  RH  046%=      5-min Rain = 0
KQU1 180057Z 24005KT 04/M06 A3008 RMK A01 T00421063  RH  047%=      5-min Rain = 0
KQU1 180058Z 24005KT 04/M06 A3008 RMK A01 T00421062  RH  047%=      5-min Rain = 0
KQU1 180059Z 25005KT 04/M06 A3008 RMK A01 T00411063  RH  047%=      5-min Rain = 0
KQU1 180100Z 24005KT 04/M06 A3008 RMK A01 T00411063  RH  047%=      5-min Rain = 0
KQU1 180101Z 24005KT 04/M06 A3008 RMK A01 T00401063  RH  047%=      5-min Rain = 0
KQU1 180102Z 17004KT 04/M06 A3008 RMK A01 T00401062  RH  047%=      5-min Rain = 0
KQU1 180103Z 17005KT 04/M06 A3008 RMK A01 T00381062  RH  048%=      5-min Rain = 0
KQU1 180104Z 16005KT 04/M06 A3008 RMK A01 T00371063  RH  048%=      5-min Rain = 0
KQU1 180105Z 18005KT 04/M06 A3008 RMK A01 T00371064  RH  048%=      5-min Rain = 0
KQU1 180106Z 20005KT 04/M06 A3008 RMK A01 T00381063  RH  048%=      5-min Rain = 0
KQU1 180107Z 19005KT 04/M06 A3008 RMK A01 T00391064  RH  047%=      5-min Rain = 0
KQU1 180108Z 19005KT 04/M06 A3008 RMK A01 T00391063  RH  047%=      5-min Rain = 0
KQU1 180109Z 19006KT 04/M06 A3008 RMK A01 T00381061  RH  048%=      5-min Rain = 0
KQU1 180110Z 19006KT 04/M06 A3008 RMK A01 T00381060  RH  049%=      5-min Rain = 0
KQU1 180111Z 20006KT 04/M06 A3008 RMK A01 T00391062  RH  048%=      5-min Rain = 0
KQU1 180112Z 20006KT 04/M06 A3008 RMK A01 T00411062  RH  047%=      5-min Rain = 0
KQU1 180113Z 19006KT 04/M06 A3008 RMK A01 T00431064  RH  046%=      5-min Rain = 0
KQU1 180114Z 19006KT 05/M06 A3008 RMK A01 T00451064  RH  045%=      5-min Rain = 0
KQU1 180115Z 19006KT 05/M06 A3008 RMK A01 T00471064  RH  044%=      5-min Rain = 0
KQU1 180116Z 19006KT 05/M06 A3008 RMK A01 T00481064  RH  044%=      5-min Rain = 0
KQU1 180117Z 19007KT 05/M06 A3008 RMK A01 T00491064  RH  044%=      5-min Rain = 0
KQU1 180118Z 19007KT 05/M07 A3007 RMK A01 T00501065  RH  043%=      5-min Rain = 0
KQU1 180119Z 19007KT 05/M07 A3007 RMK A01 T00511065  RH  043%=      5-min Rain = 0
KQU1 180120Z 18006KT 05/M07 A3007 RMK A01 T00531066  RH  042%=      5-min Rain = 0
KQU1 180121Z 19006KT 06/M07 A3008 RMK A01 T00551066  RH  041%=      5-min Rain = 0
KQU1 180122Z 19007KT 06/M07 A3008 RMK A01 T00551065  RH  042%=      5-min Rain = 0
KQU1 180123Z 19006KT 06/M06 A3008 RMK A01 T00551064  RH  042%=      5-min Rain = 0
KQU1 180124Z 19007KT 05/M06 A3008 RMK A01 T00531064  RH  043%=      5-min Rain = 0
KQU1 180125Z 19007KT 05/M06 A3008 RMK A01 T00521064  RH  043%=      5-min Rain = 0
KQU1 180126Z 19007KT 05/M06 A3008 RMK A01 T00511064  RH  043%=      5-min Rain = 0
KQU1 180127Z 20007KT 05/M07 A3008 RMK A01 T00491065  RH  043%=      5-min Rain = 0
KQU1 180128Z 20007KT 05/M07 A3007 RMK A01 T00491065  RH  043%=      5-min Rain = 0
KQU1 180129Z 20007KT 05/M07 A3007 RMK A01 T00491065  RH  043%=      5-min Rain = 0
KQU1 180130Z 21006KT 05/M07 A3007 RMK A01 T00491065  RH  044%=      5-min Rain = 0
KQU1 180131Z 21006KT 05/M06 A3007 RMK A01 T00481064  RH  044%=      5-min Rain = 0
KQU1 180132Z 21006KT 05/M06 A3007 RMK A01 T00461063  RH  045%=      5-min Rain = 0
KQU1 180133Z 22006KT 04/M06 A3007 RMK A01 T00441063  RH  046%=      5-min Rain = 0
KQU1 180134Z 21006KT 04/M06 A3007 RMK A01 T00411063  RH  046%=      5-min Rain = 0
KQU1 180135Z 21007KT 04/M06 A3007 RMK A01 T00401063  RH  047%=      5-min Rain = 0
KQU1 180136Z 21007KT 04/M06 A3007 RMK A01 T00381063  RH  048%=      5-min Rain = 0
KQU1 180137Z 21007KT 04/M06 A3007 RMK A01 T00361063  RH  048%=      5-min Rain = 0
KQU1 180138Z 21006KT 04/M06 A3007 RMK A01 T00361063  RH  048%=      5-min Rain = 0
KQU1 180139Z 21007KT 04/M06 A3007 RMK A01 T00361063  RH  048%=      5-min Rain = 0
KQU1 180140Z 20007KT 04/M06 A3007 RMK A01 T00361062  RH  048%=      5-min Rain = 0
KQU1 180141Z 21007KT 04/M06 A3007 RMK A01 T00371063  RH  048%=      5-min Rain = 0
KQU1 180142Z 21007KT 04/M06 A3007 RMK A01 T00381064  RH  047%=      5-min Rain = 0
KQU1 180143Z 21007KT 04/M06 A3007 RMK A01 T00391063  RH  047%=      5-min Rain = 0
KQU1 180144Z 21007KT 04/M06 A3007 RMK A01 T00391063  RH  047%=      5-min Rain = 0
KQU1 180145Z 21007KT 04/M06 A3007 RMK A01 T00401064  RH  047%=      5-min Rain = 0
KQU1 180146Z 21007KT 04/M06 A3007 RMK A01 T00401064  RH  047%=      5-min Rain = 0
KQU1 180147Z 21007KT 04/M06 A3007 RMK A01 T00411063  RH  047%=      5-min Rain = 0
KQU1 180148Z 21007KT 04/M06 A3007 RMK A01 T00411063  RH  047%=      5-min Rain = 0
KQU1 180149Z 21007KT 04/M06 A3007 RMK A01 T00421063  RH  046%=      5-min Rain = 0
KQU1 180150Z 21007KT 04/M06 A3007 RMK A01 T00421064  RH  046%=      5-min Rain = 0
KQU1 180151Z 21007KT 04/M06 A3006 RMK A01 T00431064  RH  046%=      5-min Rain = 0
KQU1 180152Z 21007KT 04/M06 A3006 RMK A01 T00441064  RH  045%=      5-min Rain = 0
KQU1 180153Z 21007KT 05/M06 A3006 RMK A01 T00451064  RH  045%=      5-min Rain = 0
KQU1 180154Z 21007KT 04/M06 A3006 RMK A01 T00441064  RH  045%=      5-min Rain = 0
KQU1 180155Z 21007KT 04/M06 A3006 RMK A01 T00441064  RH  045%=      5-min Rain = 0
KQU1 180156Z 21007KT 04/M06 A3006 RMK A01 T00431064  RH  046%=      5-min Rain = 0
KQU1 180157Z 22007KT 04/M06 A3006 RMK A01 T00421064  RH  046%=      5-min Rain = 0
KQU1 180158Z 22008KT 04/M06 A3006 RMK A01 T00421064  RH  046%=      5-min Rain = 0
KQU1 180159Z 22008KT 04/M06 A3006 RMK A01 T00411064  RH  046%=      5-min Rain = 0
KQU1 180200Z 22008KT 04/M06 A3006 RMK A01 T00401063  RH  047%=      5-min Rain = 0
KQU1 180201Z 22007KT 04/M06 A3006 RMK A01 T00391063  RH  047%=      5-min Rain = 0
KQU1 180202Z 22008KT 04/M06 A3006 RMK A01 T00381063  RH  048%=      5-min Rain = 0
KQU1 180203Z 22008KT 04/M06 A3006 RMK A01 T00381063  RH  048%=      5-min Rain = 0
KQU1 180204Z 22009KT 04/M06 A3006 RMK A01 T00381063  RH  048%=      5-min Rain = 0
KQU1 180205Z 22009KT 04/M06 A3006 RMK A01 T00391062  RH  048%=      5-min Rain = 0
KQU1 180206Z 22009KT 04/M06 A3006 RMK A01 T00391062  RH  048%=      5-min Rain = 0
KQU1 180207Z 22009KT 04/M06 A3006 RMK A01 T00391062  RH  048%=      5-min Rain = 0
KQU1 180208Z 22009KT 04/M06 A3006 RMK A01 T00401061  RH  048%=      5-min Rain = 0
KQU1 180209Z 22009KT 04/M06 A3006 RMK A01 T00401061  RH  048%=      5-min Rain = 0
KQU1 180210Z 22009KT 04/M06 A3006 RMK A01 T00411061  RH  047%=      5-min Rain = 0
KQU1 180211Z 22009KT 04/M06 A3006 RMK A01 T00421060  RH  047%=      5-min Rain = 0
KQU1 180212Z 22009KT 04/M06 A3006 RMK A01 T00431060  RH  047%=      5-min Rain = 0
KQU1 180213Z 22009KT 05/M06 A3006 RMK A01 T00451060  RH  047%=      5-min Rain = 0
KQU1 180214Z 22009KT 05/M06 A3006 RMK A01 T00461059  RH  046%=      5-min Rain = 0
KQU1 180215Z 22009KT 05/M06 A3006 RMK A01 T00461059  RH  046%=      5-min Rain = 0
KQU1 180216Z 22009KT 05/M06 A3006 RMK A01 T00471059  RH  046%=      5-min Rain = 0
KQU1 180217Z 22009KT 05/M06 A3006 RMK A01 T00471059  RH  046%=      5-min Rain = 0
KQU1 180218Z 22009KT 05/M06 A3006 RMK A01 T00471059  RH  046%=      5-min Rain = 0
KQU1 180219Z 22009KT 05/M06 A3006 RMK A01 T00481058  RH  046%=      5-min Rain = 0
KQU1 180220Z 22010KT 05/M06 A3006 RMK A01 T00481058  RH  046%=      5-min Rain = 0
KQU1 180221Z 22009KT 05/M06 A3006 RMK A01 T00491058  RH  046%=      5-min Rain = 0
KQU1 180222Z 22009KT 05/M06 A3006 RMK A01 T00481058  RH  046%=      5-min Rain = 0
KQU1 180223Z 22009KT 05/M06 A3006 RMK A01 T00481058  RH  046%=      5-min Rain = 0
KQU1 180224Z 22009KT 05/M06 A3006 RMK A01 T00481058  RH  046%=      5-min Rain = 0
KQU1 180225Z 22009KT 05/M06 A3006 RMK A01 T00481058  RH  046%=      5-min Rain = 0
KQU1 180226Z 22009KT 05/M06 A3006 RMK A01 T00471058  RH  046%=      5-min Rain = 0
KQU1 180227Z 22009KT 05/M06 A3006 RMK A01 T00471058  RH  047%=      5-min Rain = 0
KQU1 180228Z 22009KT 05/M06 A3006 RMK A01 T00461058  RH  047%=      5-min Rain = 0
KQU1 180229Z 22009KT 05/M06 A3006 RMK A01 T00461058  RH  047%=      5-min Rain = 0
KQU1 180230Z 23009KT 05/M06 A3005 RMK A01 T00451058  RH  047%=      5-min Rain = 0
KQU1 180231Z 23009KT 05/M06 A3005 RMK A01 T00451058  RH  047%=      5-min Rain = 0
KQU1 180232Z 23009KT 05/M06 A3005 RMK A01 T00451058  RH  047%=      5-min Rain = 0
KQU1 180233Z 23009KT 05/M06 A3005 RMK A01 T00451058  RH  047%=      5-min Rain = 0
KQU1 180234Z 23009KT 05/M06 A3005 RMK A01 T00451057  RH  047%=      5-min Rain = 0
KQU1 180235Z 23009KT 05/M06 A3005 RMK A01 T00451057  RH  047%=      5-min Rain = 0
KQU1 180236Z 23009KT 05/M06 A3005 RMK A01 T00451057  RH  048%=      5-min Rain = 0
KQU1 180237Z 23008KT 05/M06 A3005 RMK A01 T00451056  RH  048%=      5-min Rain = 0
KQU1 180238Z 23008KT 05/M06 A3005 RMK A01 T00451056  RH  048%=      5-min Rain = 0
KQU1 180239Z 23008KT 05/M06 A3005 RMK A01 T00451055  RH  048%=      5-min Rain = 0
KQU1 180240Z 23008KT 05/M06 A3005 RMK A01 T00451055  RH  048%=      5-min Rain = 0
KQU1 180241Z 23008KT 05/M05 A3005 RMK A01 T00461054  RH  048%=      5-min Rain = 0
KQU1 180242Z 23008KT 05/M05 A3005 RMK A01 T00461054  RH  048%=      5-min Rain = 0
KQU1 180243Z 23008KT 05/M05 A3005 RMK A01 T00461053  RH  048%=      5-min Rain = 0
KQU1 180244Z 23008KT 05/M05 A3005 RMK A01 T00471053  RH  048%=      5-min Rain = 0
KQU1 180245Z 23008KT 05/M05 A3005 RMK A01 T00471053  RH  048%=      5-min Rain = 0
KQU1 180246Z 23009KT 05/M05 A3005 RMK A01 T00481052  RH  048%=      5-min Rain = 0
KQU1 180247Z 23009KT 05/M05 A3005 RMK A01 T00481051  RH  049%=      5-min Rain = 0
KQU1 180248Z 23008KT 05/M05 A3005 RMK A01 T00491051  RH  048%=      5-min Rain = 0
KQU1 180249Z 23008KT 05/M05 A3005 RMK A01 T00501050  RH  048%=      5-min Rain = 0
KQU1 180250Z 23008KT 05/M05 A3005 RMK A01 T00511050  RH  048%=      5-min Rain = 0
KQU1 180251Z 23008KT 05/M05 A3005 RMK A01 T00521050  RH  048%=      5-min Rain = 0
KQU1 180252Z 23008KT 05/M05 A3005 RMK A01 T00531049  RH  048%=      5-min Rain = 0
KQU1 180253Z 23008KT 05/M05 A3005 RMK A01 T00541049  RH  047%=      5-min Rain = 0
KQU1 180254Z 23008KT 06/M05 A3005 RMK A01 T00551049  RH  047%=      5-min Rain = 0
KQU1 180255Z 23008KT 06/M05 A3005 RMK A01 T00561048  RH  047%=      5-min Rain = 0
KQU1 180256Z 23008KT 06/M05 A3005 RMK A01 T00561048  RH  047%=      5-min Rain = 0
KQU1 180257Z 23009KT 06/M05 A3005 RMK A01 T00571048  RH  047%=      5-min Rain = 0
KQU1 180258Z 23009KT 06/M05 A3005 RMK A01 T00571048  RH  047%=      5-min Rain = 0
KQU1 180259Z 23009KT 06/M05 A3005 RMK A01 T00581048  RH  047%=      5-min Rain = 0
KQU1 180300Z 23009KT 06/M05 A3005 RMK A01 T00591047  RH  046%=      5-min Rain = 0
KQU1 180301Z 23009KT 06/M05 A3005 RMK A01 T00591047  RH  047%=      5-min Rain = 0
KQU1 180302Z 23009KT 06/M05 A3005 RMK A01 T00591047  RH  047%=      5-min Rain = 0
KQU1 180303Z 23009KT 06/M05 A3004 RMK A01 T00591047  RH  047%=      5-min Rain = 0
KQU1 180304Z 23009KT 06/M05 A3004 RMK A01 T00601046  RH  046%=      5-min Rain = 0
KQU1 180305Z 23010KT 06/M05 A3004 RMK A01 T00601047  RH  046%=      5-min Rain = 0
KQU1 180306Z 23009KT 06/M05 A3004 RMK A01 T00611047  RH  046%=      5-min Rain = 0
KQU1 180307Z 23010KT 06/M05 A3004 RMK A01 T00611047  RH  046%=      5-min Rain = 0
KQU1 180308Z 23009KT 06/M05 A3004 RMK A01 T00621046  RH  046%=      5-min Rain = 0
KQU1 180309Z 23009KT 06/M05 A3004 RMK A01 T00621046  RH  046%=      5-min Rain = 0
KQU1 180310Z 23009KT 06/M05 A3004 RMK A01 T00611046  RH  046%=      5-min Rain = 0
KQU1 180311Z 23010KT 06/M05 A3005 RMK A01 T00611046  RH  046%=      5-min Rain = 0
KQU1 180312Z 23009KT 06/M05 A3005 RMK A01 T00611046  RH  046%=      5-min Rain = 0
KQU1 180313Z 23009KT 06/M05 A3004 RMK A01 T00611045  RH  046%=      5-min Rain = 0
KQU1 180314Z 22009KT 06/M05 A3004 RMK A01 T00611045  RH  046%=      5-min Rain = 0
KQU1 180315Z 23009KT 06/M05 A3004 RMK A01 T00611045  RH  047%=      5-min Rain = 0
KQU1 180316Z 22009KT 06/M05 A3004 RMK A01 T00611045  RH  047%=      5-min Rain = 0
KQU1 180317Z 22009KT 06/M05 A3004 RMK A01 T00601045  RH  047%=      5-min Rain = 0
KQU1 180318Z 22008KT 06/M05 A3004 RMK A01 T00601045  RH  047%=      5-min Rain = 0
KQU1 180319Z 22008KT 06/M05 A3004 RMK A01 T00591045  RH  047%=      5-min Rain = 0
KQU1 180320Z 22008KT 06/M05 A3004 RMK A01 T00581045  RH  048%=      5-min Rain = 0
KQU1 180321Z 21008KT 06/M05 A3004 RMK A01 T00581045  RH  048%=      5-min Rain = 0
KQU1 180322Z 21008KT 06/M05 A3004 RMK A01 T00571045  RH  048%=      5-min Rain = 0
KQU1 180323Z 21008KT 06/M05 A3004 RMK A01 T00551045  RH  048%=      5-min Rain = 0
KQU1 180324Z 21008KT 05/M05 A3004 RMK A01 T00531045  RH  049%=      5-min Rain = 0
KQU1 180325Z 21008KT 05/M05 A3004 RMK A01 T00501046  RH  050%=      5-min Rain = 0
KQU1 180326Z 21008KT 05/M05 A3004 RMK A01 T00461046  RH  051%=      5-min Rain = 0
KQU1 180327Z 21008KT 04/M05 A3004 RMK A01 T00441046  RH  052%=      5-min Rain = 0
KQU1 180328Z 22008KT 04/M05 A3004 RMK A01 T00421047  RH  052%=      5-min Rain = 0
KQU1 180329Z 21008KT 04/M05 A3004 RMK A01 T00411047  RH  053%=      5-min Rain = 0
KQU1 180330Z 21008KT 04/M05 A3004 RMK A01 T00391047  RH  054%=      5-min Rain = 0
KQU1 180331Z 22008KT 04/M05 A3003 RMK A01 T00371047  RH  054%=      5-min Rain = 0
KQU1 180332Z 22008KT 04/M05 A3003 RMK A01 T00351047  RH  055%=      5-min Rain = 0
KQU1 180333Z 22008KT 03/M05 A3003 RMK A01 T00341047  RH  055%=      5-min Rain = 0
KQU1 180334Z 22008KT 03/M05 A3003 RMK A01 T00331047  RH  056%=      5-min Rain = 0
KQU1 180335Z 22008KT 03/M05 A3003 RMK A01 T00321046  RH  056%=      5-min Rain = 0
KQU1 180336Z 22008KT 03/M05 A3003 RMK A01 T00331045  RH  057%=      5-min Rain = 0
KQU1 180337Z 22009KT 03/M04 A3003 RMK A01 T00341044  RH  057%=      5-min Rain = 0
KQU1 180338Z 22009KT 04/M04 A3003 RMK A01 T00381043  RH  055%=      5-min Rain = 0
KQU1 180339Z 23009KT 04/M04 A3003 RMK A01 T00411043  RH  054%=      5-min Rain = 0
KQU1 180340Z 23010KT 04/M04 A3003 RMK A01 T00441043  RH  053%=      5-min Rain = 0
KQU1 180341Z 23009KT 05/M04 A3003 RMK A01 T00471043  RH  052%=      5-min Rain = 0
KQU1 180342Z 23009KT 05/M04 A3003 RMK A01 T00491042  RH  052%=      5-min Rain = 0
KQU1 180343Z 23008KT 05/M04 A3003 RMK A01 T00501042  RH  051%=      5-min Rain = 0
KQU1 180344Z 22008KT 05/M04 A3003 RMK A01 T00511042  RH  051%=      5-min Rain = 0
KQU1 180345Z 23009KT 05/M04 A3003 RMK A01 T00521042  RH  051%=      5-min Rain = 0
KQU1 180346Z 23008KT 05/M04 A3003 RMK A01 T00531042  RH  050%=      5-min Rain = 0
KQU1 180347Z 22008KT 05/M04 A3003 RMK A01 T00541042  RH  050%=      5-min Rain = 0
KQU1 180348Z 22009KT 05/M04 A3003 RMK A01 T00541042  RH  050%=      5-min Rain = 0
KQU1 180349Z 22008KT 05/M04 A3003 RMK A01 T00541042  RH  050%=      5-min Rain = 0
KQU1 180350Z 22008KT 05/M04 A3003 RMK A01 T00541042  RH  050%=      5-min Rain = 0
KQU1 180351Z 22008KT 05/M04 A3003 RMK A01 T00541042  RH  050%=      5-min Rain = 0
KQU1 180352Z 22009KT 05/M04 A3003 RMK A01 T00541042  RH  050%=      5-min Rain = 0
KQU1 180353Z 22009KT 05/M04 A3003 RMK A01 T00541042  RH  050%=      5-min Rain = 0
KQU1 180354Z 22009KT 05/M04 A3003 RMK A01 T00541042  RH  050%=      5-min Rain = 0
KQU1 180355Z 22009KT 05/M04 A3002 RMK A01 T00541042  RH  050%=      5-min Rain = 0
KQU1 180356Z 22009KT 05/M04 A3002 RMK A01 T00541042  RH  050%=      5-min Rain = 0
KQU1 180357Z 22009KT 05/M04 A3002 RMK A01 T00541042  RH  050%=      5-min Rain = 0
KQU1 180358Z 22008KT 05/M04 A3002 RMK A01 T00541042  RH  050%=      5-min Rain = 0
KQU1 180359Z 22009KT 05/M04 A3002 RMK A01 T00541042  RH  050%=      5-min Rain = 0
KQU1 180400Z 22009KT 05/M04 A3002 RMK A01 T00541042  RH  050%=      5-min Rain = 0
KQU1 180401Z 22009KT 05/M04 A3002 RMK A01 T00541043  RH  050%=      5-min Rain = 0
KQU1 180402Z 22009KT 06/M04 A3002 RMK A01 T00551043  RH  049%=      5-min Rain = 0
KQU1 180403Z 22008KT 05/M04 A3002 RMK A01 T00541043  RH  050%=      5-min Rain = 0
KQU1 180404Z 22009KT 05/M04 A3002 RMK A01 T00541043  RH  050%=      5-min Rain = 0
KQU1 180405Z 22008KT 05/M04 A3002 RMK A01 T00541043  RH  050%=      5-min Rain = 0
KQU1 180406Z 23009KT 05/M04 A3002 RMK A01 T00541043  RH  050%=      5-min Rain = 0
KQU1 180407Z 23009KT 05/M04 A3002 RMK A01 T00541043  RH  049%=      5-min Rain = 0
KQU1 180408Z 23010KT 06/M04 A3002 RMK A01 T00551043  RH  049%=      5-min Rain = 0
KQU1 180409Z 23010KT 06/M04 A3002 RMK A01 T00561043  RH  049%=      5-min Rain = 0
KQU1 180410Z 23010KT 06/M04 A3002 RMK A01 T00561043  RH  049%=      5-min Rain = 0
KQU1 180411Z 22010KT 06/M04 A3002 RMK A01 T00571043  RH  049%=      5-min Rain = 0
KQU1 180412Z 23010KT 06/M04 A3002 RMK A01 T00571044  RH  048%=      5-min Rain = 0
KQU1 180413Z 23011KT 06/M04 A3002 RMK A01 T00571044  RH  048%=      5-min Rain = 0
KQU1 180414Z 22011KT 06/M04 A3001 RMK A01 T00581044  RH  048%=      5-min Rain = 0
KQU1 180415Z 22010KT 06/M04 A3001 RMK A01 T00581044  RH  048%=      5-min Rain = 0
KQU1 180416Z 22010KT 06/M04 A3001 RMK A01 T00581044  RH  048%=      5-min Rain = 0
KQU1 180417Z 22010KT 06/M04 A3001 RMK A01 T00581044  RH  048%=      5-min Rain = 0
KQU1 180418Z 23011KT 06/M05 A3001 RMK A01 T00581045  RH  048%=      5-min Rain = 0
KQU1 180419Z 23010KT 06/M04 A3001 RMK A01 T00581044  RH  048%=      5-min Rain = 0
KQU1 180420Z 23011KT 06/M04 A3001 RMK A01 T00581044  RH  048%=      5-min Rain = 0
KQU1 180421Z 23010KT 06/M04 A3001 RMK A01 T00581044  RH  048%=      5-min Rain = 0
KQU1 180422Z 23010KT 06/M04 A3001 RMK A01 T00571044  RH  048%=      5-min Rain = 0
KQU1 180423Z 23010KT 06/M05 A3001 RMK A01 T00571045  RH  048%=      5-min Rain = 0
KQU1 180424Z 22010KT 06/M05 A3001 RMK A01 T00571045  RH  048%=      5-min Rain = 0
KQU1 180425Z 22010KT 06/M04 A3001 RMK A01 T00561044  RH  048%=      5-min Rain = 0
KQU1 180426Z 22010KT 06/M04 A3001 RMK A01 T00561044  RH  049%=      5-min Rain = 0
KQU1 180427Z 22009KT 06/M05 A3001 RMK A01 T00551045  RH  049%=      5-min Rain = 0
KQU1 180428Z 22010KT 06/M04 A3001 RMK A01 T00551044  RH  049%=      5-min Rain = 0
KQU1 180429Z 22010KT 05/M04 A3001 RMK A01 T00541044  RH  049%=      5-min Rain = 0
KQU1 180430Z 22010KT 05/M05 A3001 RMK A01 T00541045  RH  049%=      5-min Rain = 0
KQU1 180431Z 22010KT 05/M04 A3001 RMK A01 T00541044  RH  049%=      5-min Rain = 0
KQU1 180432Z 23010KT 05/M05 A3001 RMK A01 T00531045  RH  049%=      5-min Rain = 0
KQU1 180433Z 23010KT 05/M05 A3001 RMK A01 T00531045  RH  049%=      5-min Rain = 0
KQU1 180434Z 23009KT 05/M05 A3001 RMK A01 T00531045  RH  049%=      5-min Rain = 0
KQU1 180435Z 23009KT 05/M05 A3001 RMK A01 T00521045  RH  050%=      5-min Rain = 0
KQU1 180436Z 22009KT 05/M05 A3001 RMK A01 T00521045  RH  050%=      5-min Rain = 0
KQU1 180437Z 23009KT 05/M04 A3001 RMK A01 T00511044  RH  050%=      5-min Rain = 0
KQU1 180438Z 22009KT 05/M04 A3001 RMK A01 T00511044  RH  050%=      5-min Rain = 0
KQU1 180439Z 22009KT 05/M04 A3001 RMK A01 T00501044  RH  050%=      5-min Rain = 0
KQU1 180440Z 22009KT 05/M04 A3001 RMK A01 T00491044  RH  051%=      5-min Rain = 0
KQU1 180441Z 22009KT 05/M04 A3001 RMK A01 T00491044  RH  051%=      5-min Rain = 0
KQU1 180442Z 22008KT 05/M04 A3001 RMK A01 T00481044  RH  051%=      5-min Rain = 0
KQU1 180443Z 22009KT 05/M04 A3001 RMK A01 T00471044  RH  052%=      5-min Rain = 0
KQU1 180444Z 22009KT 05/M04 A3001 RMK A01 T00471044  RH  052%=      5-min Rain = 0
KQU1 180445Z 22009KT 05/M04 A3001 RMK A01 T00461044  RH  052%=      5-min Rain = 0
KQU1 180446Z 22009KT 05/M04 A3001 RMK A01 T00451044  RH  052%=      5-min Rain = 0
KQU1 180447Z 23009KT 05/M04 A3001 RMK A01 T00451044  RH  052%=      5-min Rain = 0
KQU1 180448Z 23008KT 05/M04 A3001 RMK A01 T00451044  RH  053%=      5-min Rain = 0
KQU1 180449Z 23009KT 04/M04 A3001 RMK A01 T00441044  RH  053%=      5-min Rain = 0
KQU1 180450Z 23009KT 04/M04 A3001 RMK A01 T00431044  RH  053%=      5-min Rain = 0
KQU1 180451Z 23009KT 04/M04 A3001 RMK A01 T00431044  RH  053%=      5-min Rain = 0
KQU1 180452Z 22009KT 04/M04 A3001 RMK A01 T00421044  RH  054%=      5-min Rain = 0
KQU1 180453Z 22009KT 04/M04 A3001 RMK A01 T00411044  RH  054%=      5-min Rain = 0
KQU1 180454Z 22009KT 04/M04 A3001 RMK A01 T00411044  RH  054%=      5-min Rain = 0
KQU1 180455Z 22010KT 04/M04 A3001 RMK A01 T00401044  RH  054%=      5-min Rain = 0
KQU1 180456Z 22010KT 04/M04 A30 RMK A01 T00391044  RH  055%=      5-min Rain = 0
KQU1 180457Z 22009KT 04/M04 A30 RMK A01 T00391044  RH  055%=      5-min Rain = 0
KQU1 180458Z 22009KT 04/M04 A30 RMK A01 T00381044  RH  055%=      5-min Rain = 0
KQU1 180459Z 22009KT 04/M04 A30 RMK A01 T00381044  RH  055%=      5-min Rain = 0
KQU1 180500Z 22009KT 04/M04 A3001 RMK A01 T00371043  RH  055%=      5-min Rain = 0
KQU1 180501Z 22009KT 04/M04 A3001 RMK A01 T00371043  RH  056%=      5-min Rain = 0
KQU1 180502Z 22008KT 04/M04 A3001 RMK A01 T00361044  RH  056%=      5-min Rain = 0
KQU1 180503Z 22008KT 04/M04 A30 RMK A01 T00351044  RH  056%=      5-min Rain = 0
KQU1 180504Z 21007KT 04/M04 A30 RMK A01 T00351044  RH  056%=      5-min Rain = 0
KQU1 180505Z 21008KT 03/M04 A30 RMK A01 T00331044  RH  057%=      5-min Rain = 0
KQU1 180506Z 21008KT 03/M04 A30 RMK A01 T00321044  RH  057%=      5-min Rain = 0
KQU1 180507Z 21008KT 03/M05 A30 RMK A01 T00311045  RH  058%=      5-min Rain = 0
KQU1 180508Z 21008KT 03/M05 A30 RMK A01 T00291045  RH  058%=      5-min Rain = 0
KQU1 180509Z 21008KT 03/M05 A30 RMK A01 T00271045  RH  059%=      5-min Rain = 0
KQU1 180510Z 21008KT 03/M05 A30 RMK A01 T00261045  RH  059%=      5-min Rain = 0
KQU1 180511Z 21008KT 02/M05 A30 RMK A01 T00241045  RH  060%=      5-min Rain = 0
KQU1 180512Z 21008KT 02/M05 A30 RMK A01 T00241045  RH  060%=      5-min Rain = 0
KQU1 180513Z 21008KT 02/M05 A30 RMK A01 T00231046  RH  060%=      5-min Rain = 0
KQU1 180514Z 21009KT 02/M05 A30 RMK A01 T00231046  RH  061%=      5-min Rain = 0
KQU1 180515Z 21009KT 02/M05 A30 RMK A01 T00221046  RH  061%=      5-min Rain = 0
KQU1 180516Z 21008KT 02/M05 A30 RMK A01 T00211046  RH  061%=      5-min Rain = 0
KQU1 180517Z 21009KT 02/M05 A30 RMK A01 T00191046  RH  062%=      5-min Rain = 0
KQU1 180518Z 21009KT 02/M05 A30 RMK A01 T00181046  RH  062%=      5-min Rain = 0
KQU1 180519Z 21009KT 02/M05 A30 RMK A01 T00171046  RH  063%=      5-min Rain = 0
KQU1 180520Z 21009KT 02/M05 A30 RMK A01 T00161046  RH  063%=      5-min Rain = 0
KQU1 180521Z 21009KT 02/M05 A30 RMK A01 T00151047  RH  064%=      5-min Rain = 0
KQU1 180522Z 21009KT 01/M05 A2999 RMK A01 T00141047  RH  064%=      5-min Rain = 0
KQU1 180523Z 21009KT 01/M05 A2999 RMK A01 T00141047  RH  064%=      5-min Rain = 0
KQU1 180524Z 21009KT 01/M05 A2999 RMK A01 T00141047  RH  064%=      5-min Rain = 0
KQU1 180525Z 20009KT 01/M05 A2999 RMK A01 T00141047  RH  064%=      5-min Rain = 0
KQU1 180526Z 21009KT 01/M05 A2999 RMK A01 T00141046  RH  064%=      5-min Rain = 0
KQU1 180527Z 21009KT 02/M05 A2999 RMK A01 T00151046  RH  064%=      5-min Rain = 0
KQU1 180528Z 21010KT 02/M05 A2999 RMK A01 T00151046  RH  064%=      5-min Rain = 0
KQU1 180529Z 21010KT 02/M05 A2999 RMK A01 T00161046  RH  064%=      5-min Rain = 0
KQU1 180530Z 21009KT 02/M05 A2999 RMK A01 T00161046  RH  063%=      5-min Rain = 0
KQU1 180531Z 20009KT 02/M05 A2999 RMK A01 T00161046  RH  063%=      5-min Rain = 0
KQU1 180532Z 20009KT 02/M05 A2998 RMK A01 T00161046  RH  063%=      5-min Rain = 0
KQU1 180533Z 20009KT 02/M05 A2998 RMK A01 T00161046  RH  063%=      5-min Rain = 0
KQU1 180534Z 21009KT 02/M05 A2998 RMK A01 T00161047  RH  063%=      5-min Rain = 0
KQU1 180535Z 21009KT 02/M05 A2998 RMK A01 T00151047  RH  063%=      5-min Rain = 0
KQU1 180536Z 21009KT 02/M05 A2998 RMK A01 T00151047  RH  063%=      5-min Rain = 0
KQU1 180537Z 21009KT 02/M05 A2998 RMK A01 T00151047  RH  064%=      5-min Rain = 0
KQU1 180538Z 21009KT 01/M05 A2998 RMK A01 T00141047  RH  064%=      5-min Rain = 0
KQU1 180539Z 21009KT 01/M05 A2998 RMK A01 T00141047  RH  064%=      5-min Rain = 0
KQU1 180540Z 21009KT 01/M05 A2998 RMK A01 T00141047  RH  064%=      5-min Rain = 0
KQU1 180541Z 20009KT 01/M05 A2998 RMK A01 T00141047  RH  064%=      5-min Rain = 0
KQU1 180542Z 20009KT 01/M05 A2998 RMK A01 T00131047  RH  064%=      5-min Rain = 0
KQU1 180543Z 20009KT 01/M05 A2998 RMK A01 T00121047  RH  065%=      5-min Rain = 0
KQU1 180544Z 20009KT 01/M05 A2998 RMK A01 T00111047  RH  065%=      5-min Rain = 0
KQU1 180545Z 20009KT 01/M05 A2997 RMK A01 T00111047  RH  065%=      5-min Rain = 0
KQU1 180546Z 20009KT 01/M05 A2997 RMK A01 T00101047  RH  065%=      5-min Rain = 0
KQU1 180547Z 19009KT 01/M05 A2997 RMK A01 T00101047  RH  066%=      5-min Rain = 0
KQU1 180548Z 19009KT 01/M05 A2997 RMK A01 T00091047  RH  066%=      5-min Rain = 0
KQU1 180549Z 20009KT 01/M05 A2997 RMK A01 T00081047  RH  067%=      5-min Rain = 0
KQU1 180550Z 20009KT 01/M05 A2997 RMK A01 T00081047  RH  067%=      5-min Rain = 0
KQU1 180551Z 20009KT 01/M05 A2997 RMK A01 T00071047  RH  067%=      5-min Rain = 0
KQU1 180552Z 19009KT 01/M05 A2997 RMK A01 T00071047  RH  067%=      5-min Rain = 0
KQU1 180553Z 18010KT 01/M05 A2997 RMK A01 T00061047  RH  067%=      5-min Rain = 0
KQU1 180554Z 19010KT 01/M05 A2997 RMK A01 T00061047  RH  068%=      5-min Rain = 0
KQU1 180555Z 20009KT 01/M05 A2997 RMK A01 T00061047  RH  068%=      5-min Rain = 0
KQU1 180556Z 21010KT 01/M05 A2997 RMK A01 T00071047  RH  067%=      5-min Rain = 0
KQU1 180557Z 21012KT 01/M05 A2997 RMK A01 T00091046  RH  067%=      5-min Rain = 0
KQU1 180558Z 21012KT 01/M05 A2997 RMK A01 T00111046  RH  066%=      5-min Rain = 0
KQU1 180559Z 21013KT 02/M05 A2997 RMK A01 T00151046  RH  064%=      5-min Rain = 0

Page generated in 0.0645 seconds.